<?xml version='1.0' encoding='UTF-8'?><gpx version="1.1" creator="JPX - https://github.com/jenetics/jpx" xmlns="http://www.topografix.com/GPX/1/1"><trk><trkseg><trkpt lat="43.02884310787453" lon="12.644531478787249"><ele>227.8</ele><time>2026-05-03T14:23:02.001Z</time></trkpt><trkpt lat="43.028818694914946" lon="12.644450543460106"><ele>227.60000000000002</ele><time>2026-05-03T14:23:13Z</time></trkpt><trkpt lat="43.02884450997187" lon="12.64435552007743"><ele>227.39999999999998</ele><time>2026-05-03T14:23:31Z</time></trkpt><trkpt lat="43.02898213242096" lon="12.644211537242752"><ele>227.2</ele><time>2026-05-03T14:23:38Z</time></trkpt><trkpt lat="43.02891073032453" lon="12.64427385288267"><ele>227.0</ele><time>2026-05-03T14:23:39Z</time></trkpt><trkpt lat="43.0289444206478" lon="12.644350710557843"><ele>227.00000000000003</ele><time>2026-05-03T14:25:52Z</time></trkpt><trkpt lat="43.02902137540983" lon="12.644294740983517"><ele>227.0</ele><time>2026-05-03T14:27:36Z</time></trkpt><trkpt lat="43.029058156353315" lon="12.644176736744539"><ele>227.0</ele><time>2026-05-03T14:27:38Z</time></trkpt><trkpt lat="43.02908264459342" lon="12.644092266909544"><ele>227.0</ele><time>2026-05-03T14:27:39Z</time></trkpt><trkpt lat="43.02911103197625" lon="12.644010683333226"><ele>227.00000000000003</ele><time>2026-05-03T14:27:40Z</time></trkpt><trkpt lat="43.029158874651365" lon="12.643945820310563"><ele>227.0</ele><time>2026-05-03T14:27:41Z</time></trkpt><trkpt lat="43.02921239610537" lon="12.643792221224144"><ele>227.0</ele><time>2026-05-03T14:27:43Z</time></trkpt><trkpt lat="43.02910185842097" lon="12.644051711060175"><ele>227.0</ele><time>2026-05-03T14:27:44Z</time></trkpt><trkpt lat="43.02920336983834" lon="12.643818957072332"><ele>227.0</ele><time>2026-05-03T14:27:45Z</time></trkpt><trkpt lat="43.02933094367481" lon="12.643623088646486"><ele>228.66666666666669</ele><time>2026-05-03T14:27:46Z</time></trkpt><trkpt lat="43.02945720841777" lon="12.643489673536136"><ele>230.33333333333331</ele><time>2026-05-03T14:27:47Z</time></trkpt><trkpt lat="43.029518976481626" lon="12.643441312971303"><ele>232.0</ele><time>2026-05-03T14:27:48Z</time></trkpt><trkpt lat="43.02924388113203" lon="12.643691580117894"><ele>232.0</ele><time>2026-05-03T14:27:50Z</time></trkpt><trkpt lat="43.02968755160688" lon="12.643518713163653"><ele>232.0</ele><time>2026-05-03T14:27:53Z</time></trkpt><trkpt lat="43.0297196996811" lon="12.643607643559594"><ele>232.0</ele><time>2026-05-03T14:27:54Z</time></trkpt><trkpt lat="43.02977911085087" lon="12.643781309915848"><ele>232.0</ele><time>2026-05-03T14:27:55Z</time></trkpt><trkpt lat="43.029819199697506" lon="12.643873816418258"><ele>232.0</ele><time>2026-05-03T14:27:56Z</time></trkpt><trkpt lat="43.02985396581789" lon="12.64396325621013"><ele>232.0</ele><time>2026-05-03T14:27:57Z</time></trkpt><trkpt lat="43.029897678823026" lon="12.64407480628483"><ele>232.0</ele><time>2026-05-03T14:27:58Z</time></trkpt><trkpt lat="43.029940737954284" lon="12.644184466555107"><ele>232.0</ele><time>2026-05-03T14:27:59Z</time></trkpt><trkpt lat="43.029986066284756" lon="12.64428758422597"><ele>232.0</ele><time>2026-05-03T14:28:00Z</time></trkpt><trkpt lat="43.03003567551162" lon="12.644398952102533"><ele>232.0</ele><time>2026-05-03T14:28:01Z</time></trkpt><trkpt lat="43.030085942614605" lon="12.644505707472462"><ele>232.0</ele><time>2026-05-03T14:28:02Z</time></trkpt><trkpt lat="43.03013491344636" lon="12.644620465381784"><ele>235.0</ele><time>2026-05-03T14:28:03Z</time></trkpt><trkpt lat="43.030185584320535" lon="12.644736714989358"><ele>238.0</ele><time>2026-05-03T14:28:04Z</time></trkpt><trkpt lat="43.03023664130125" lon="12.644856312366603"><ele>241.0</ele><time>2026-05-03T14:28:05Z</time></trkpt><trkpt lat="43.030284824562834" lon="12.644981608906884"><ele>244.0</ele><time>2026-05-03T14:28:06Z</time></trkpt><trkpt lat="43.0303282467915" lon="12.645103374465762"><ele>247.0</ele><time>2026-05-03T14:28:07Z</time></trkpt><trkpt lat="43.03038416101569" lon="12.645222103855454"><ele>248.2</ele><time>2026-05-03T14:28:07.999Z</time></trkpt><trkpt lat="43.03044669134076" lon="12.6453310770889"><ele>249.39999999999998</ele><time>2026-05-03T14:28:08.999Z</time></trkpt><trkpt lat="43.03050309538346" lon="12.645431412681406"><ele>250.60000000000002</ele><time>2026-05-03T14:28:09.999Z</time></trkpt><trkpt lat="43.030572598660534" lon="12.645551214366552"><ele>251.8</ele><time>2026-05-03T14:28:10.999Z</time></trkpt><trkpt lat="43.0306406024952" lon="12.64567293970166"><ele>253.0</ele><time>2026-05-03T14:28:11.999Z</time></trkpt><trkpt lat="43.03070068713589" lon="12.645807171906347"><ele>253.0</ele><time>2026-05-03T14:28:12.999Z</time></trkpt><trkpt lat="43.03076487389261" lon="12.645944015044373"><ele>253.0</ele><time>2026-05-03T14:28:13.999Z</time></trkpt><trkpt lat="43.03082670362237" lon="12.646077781204855"><ele>253.0</ele><time>2026-05-03T14:28:14.999Z</time></trkpt><trkpt lat="43.03088903969837" lon="12.646215457586033"><ele>253.0</ele><time>2026-05-03T14:28:15.999Z</time></trkpt><trkpt lat="43.030959083431114" lon="12.646347653326774"><ele>256.5</ele><time>2026-05-03T14:28:16.999Z</time></trkpt><trkpt lat="43.03102888919645" lon="12.64647143526494"><ele>260.0</ele><time>2026-05-03T14:28:17.999Z</time></trkpt><trkpt lat="43.03108942728619" lon="12.64659994659267"><ele>263.5</ele><time>2026-05-03T14:28:18.999Z</time></trkpt><trkpt lat="43.03115940340623" lon="12.646735309601489"><ele>267.0</ele><time>2026-05-03T14:28:19.999Z</time></trkpt><trkpt lat="43.03122161000958" lon="12.64686588072491"><ele>269.5</ele><time>2026-05-03T14:28:20.999Z</time></trkpt><trkpt lat="43.031281417683964" lon="12.64700063045151"><ele>272.0</ele><time>2026-05-03T14:28:21.999Z</time></trkpt><trkpt lat="43.03134048988531" lon="12.647131928192028"><ele>274.5</ele><time>2026-05-03T14:28:22.999Z</time></trkpt><trkpt lat="43.03139407339963" lon="12.647265905805002"><ele>277.0</ele><time>2026-05-03T14:28:23.999Z</time></trkpt><trkpt lat="43.03144506620381" lon="12.647400153751045"><ele>277.0</ele><time>2026-05-03T14:28:24.999Z</time></trkpt><trkpt lat="43.031487805464536" lon="12.647500176366764"><ele>277.0</ele><time>2026-05-03T14:28:25.999Z</time></trkpt><trkpt lat="43.03152321693943" lon="12.647586514829149"><ele>277.0</ele><time>2026-05-03T14:28:26.999Z</time></trkpt><trkpt lat="43.03156574811044" lon="12.6477017954409"><ele>277.0</ele><time>2026-05-03T14:28:28.999Z</time></trkpt><trkpt lat="43.03160688031828" lon="12.647800339582517"><ele>277.0</ele><time>2026-05-03T14:28:31.999Z</time></trkpt><trkpt lat="43.03164534040997" lon="12.647882217648627"><ele>277.0</ele><time>2026-05-03T14:28:32.999Z</time></trkpt><trkpt lat="43.03169066530616" lon="12.64798233561192"><ele>280.16666666666663</ele><time>2026-05-03T14:28:33.999Z</time></trkpt><trkpt lat="43.031743367562" lon="12.648089998976639"><ele>283.3333333333333</ele><time>2026-05-03T14:28:34.999Z</time></trkpt><trkpt lat="43.031758156224356" lon="12.64822283526763"><ele>286.5</ele><time>2026-05-03T14:28:35.999Z</time></trkpt><trkpt lat="43.03179138745745" lon="12.648313393239054"><ele>289.6666666666667</ele><time>2026-05-03T14:28:36.999Z</time></trkpt><trkpt lat="43.031822288190845" lon="12.648427406113823"><ele>292.83333333333337</ele><time>2026-05-03T14:28:37.999Z</time></trkpt><trkpt lat="43.03189341001566" lon="12.64849847865939"><ele>296.0</ele><time>2026-05-03T14:28:38.999Z</time></trkpt><trkpt lat="43.03192161798211" lon="12.648650131927166"><ele>297.6</ele><time>2026-05-03T14:28:39.999Z</time></trkpt><trkpt lat="43.031968727937866" lon="12.648776350005003"><ele>299.20000000000005</ele><time>2026-05-03T14:28:40.999Z</time></trkpt><trkpt lat="43.03200140518757" lon="12.648900452602112"><ele>300.79999999999995</ele><time>2026-05-03T14:28:41.999Z</time></trkpt><trkpt lat="43.03202460875315" lon="12.649025028802054"><ele>302.4</ele><time>2026-05-03T14:28:42.999Z</time></trkpt><trkpt lat="43.032046125572855" lon="12.649133079395304"><ele>304.0</ele><time>2026-05-03T14:28:43.999Z</time></trkpt><trkpt lat="43.03207515870699" lon="12.649249229257727"><ele>304.0</ele><time>2026-05-03T14:28:44.999Z</time></trkpt><trkpt lat="43.03211575503236" lon="12.6493818129727"><ele>304.0</ele><time>2026-05-03T14:28:45.999Z</time></trkpt><trkpt lat="43.03213938456108" lon="12.649484818680945"><ele>304.0</ele><time>2026-05-03T14:28:46.999Z</time></trkpt><trkpt lat="43.03217605678289" lon="12.6495825538127"><ele>304.0</ele><time>2026-05-03T14:28:47.999Z</time></trkpt><trkpt lat="43.03221967656039" lon="12.64968542003319"><ele>304.0</ele><time>2026-05-03T14:28:48.999Z</time></trkpt><trkpt lat="43.03226574824628" lon="12.649783800486848"><ele>304.0</ele><time>2026-05-03T14:28:49.999Z</time></trkpt><trkpt lat="43.03231296531772" lon="12.649881185691957"><ele>306.0</ele><time>2026-05-03T14:28:50.999Z</time></trkpt><trkpt lat="43.03234997544675" lon="12.64995460440915"><ele>308.0</ele><time>2026-05-03T14:28:51.999Z</time></trkpt><trkpt lat="43.032441052977056" lon="12.650016028521877"><ele>310.0</ele><time>2026-05-03T14:28:53.999Z</time></trkpt><trkpt lat="43.03250968284915" lon="12.650054402021144"><ele>312.0</ele><time>2026-05-03T14:28:54.999Z</time></trkpt><trkpt lat="43.03258001490459" lon="12.650108078213849"><ele>314.0</ele><time>2026-05-03T14:28:55.999Z</time></trkpt><trkpt lat="43.03268571820001" lon="12.65019988745432"><ele>316.0</ele><time>2026-05-03T14:28:57.999Z</time></trkpt><trkpt lat="43.03273553182304" lon="12.650273660974179"><ele>320.6</ele><time>2026-05-03T14:28:59.999Z</time></trkpt><trkpt lat="43.03275149713004" lon="12.650373623602391"><ele>325.20000000000005</ele><time>2026-05-03T14:29:08.999Z</time></trkpt><trkpt lat="43.03267940791101" lon="12.650504069327017"><ele>329.79999999999995</ele><time>2026-05-03T14:29:10.999Z</time></trkpt><trkpt lat="43.032613106886345" lon="12.650658535888043"><ele>334.4</ele><time>2026-05-03T14:29:12.999Z</time></trkpt><trkpt lat="43.032566535296326" lon="12.65075169329568"><ele>339.0</ele><time>2026-05-03T14:29:14Z</time></trkpt><trkpt lat="43.0325256897616" lon="12.650845929757752"><ele>339.0</ele><time>2026-05-03T14:29:15Z</time></trkpt><trkpt lat="43.03247891241816" lon="12.650944168469596"><ele>339.0</ele><time>2026-05-03T14:29:16Z</time></trkpt><trkpt lat="43.03243718568331" lon="12.651061297849562"><ele>339.0</ele><time>2026-05-03T14:29:17Z</time></trkpt><trkpt lat="43.03240567621393" lon="12.651168775231485"><ele>339.0</ele><time>2026-05-03T14:29:18Z</time></trkpt><trkpt lat="43.03238692667929" lon="12.651270170352978"><ele>339.0</ele><time>2026-05-03T14:29:19Z</time></trkpt><trkpt lat="43.032352608799485" lon="12.651360391751718"><ele>339.0</ele><time>2026-05-03T14:29:20Z</time></trkpt><trkpt lat="43.03233955234179" lon="12.65145850265543"><ele>338.2</ele><time>2026-05-03T14:29:21Z</time></trkpt><trkpt lat="43.032326810573" lon="12.651576972799008"><ele>337.4</ele><time>2026-05-03T14:29:22Z</time></trkpt><trkpt lat="43.032313578563816" lon="12.651695679623277"><ele>336.6</ele><time>2026-05-03T14:29:23Z</time></trkpt><trkpt lat="43.032299399518905" lon="12.651816689779862"><ele>335.8</ele><time>2026-05-03T14:29:24Z</time></trkpt><trkpt lat="43.032283865443596" lon="12.651949264368993"><ele>335.0</ele><time>2026-05-03T14:29:25Z</time></trkpt><trkpt lat="43.03226957606945" lon="12.652086338875298"><ele>336.6</ele><time>2026-05-03T14:29:26Z</time></trkpt><trkpt lat="43.032255383097514" lon="12.6522336916828"><ele>338.2</ele><time>2026-05-03T14:29:27Z</time></trkpt><trkpt lat="43.03226554323225" lon="12.652392584636857"><ele>339.79999999999995</ele><time>2026-05-03T14:29:28Z</time></trkpt><trkpt lat="43.032251537354796" lon="12.652554821258281"><ele>341.4</ele><time>2026-05-03T14:29:29Z</time></trkpt><trkpt lat="43.03225825793021" lon="12.652680666247777"><ele>343.0</ele><time>2026-05-03T14:29:30Z</time></trkpt><trkpt lat="43.03227645112404" lon="12.6528277991407"><ele>344.16666666666663</ele><time>2026-05-03T14:29:31Z</time></trkpt><trkpt lat="43.03229304693402" lon="12.652969246339794"><ele>345.3333333333333</ele><time>2026-05-03T14:29:32Z</time></trkpt><trkpt lat="43.03231750650131" lon="12.653107858508491"><ele>346.5</ele><time>2026-05-03T14:29:33Z</time></trkpt><trkpt lat="43.03231639612009" lon="12.653200595726934"><ele>347.6666666666667</ele><time>2026-05-03T14:29:34Z</time></trkpt><trkpt lat="43.03231031673954" lon="12.653293528941498"><ele>348.83333333333337</ele><time>2026-05-03T14:29:36Z</time></trkpt><trkpt lat="43.032353002635986" lon="12.653212583712241"><ele>350.0</ele><time>2026-05-03T14:29:49Z</time></trkpt><trkpt lat="43.03242636802174" lon="12.65318492103627"><ele>353.1666666666667</ele><time>2026-05-03T14:29:51Z</time></trkpt><trkpt lat="43.0325507852631" lon="12.653169926414057"><ele>356.33333333333337</ele><time>2026-05-03T14:29:53Z</time></trkpt><trkpt lat="43.03262039637301" lon="12.653131766734326"><ele>359.5</ele><time>2026-05-03T14:29:54Z</time></trkpt><trkpt lat="43.03268843176113" lon="12.653110893392759"><ele>362.6666666666667</ele><time>2026-05-03T14:29:55Z</time></trkpt><trkpt lat="43.032746614177256" lon="12.653077996461848"><ele>365.8333333333333</ele><time>2026-05-03T14:29:56Z</time></trkpt><trkpt lat="43.03283401760605" lon="12.653009399087342"><ele>369.0</ele><time>2026-05-03T14:29:58Z</time></trkpt><trkpt lat="43.032924466432654" lon="12.653044823018002"><ele>369.0</ele><time>2026-05-03T14:30:00Z</time></trkpt><trkpt lat="43.032978475614" lon="12.653106497157301"><ele>369.0</ele><time>2026-05-03T14:30:01Z</time></trkpt><trkpt lat="43.03304047399515" lon="12.653180587345478"><ele>369.0</ele><time>2026-05-03T14:30:02Z</time></trkpt><trkpt lat="43.03310546434248" lon="12.653247911698172"><ele>369.0</ele><time>2026-05-03T14:30:03Z</time></trkpt><trkpt lat="43.0331879149734" lon="12.653293148397415"><ele>369.0</ele><time>2026-05-03T14:30:04Z</time></trkpt><trkpt lat="43.03329421518067" lon="12.653340013109421"><ele>369.0</ele><time>2026-05-03T14:30:05Z</time></trkpt><trkpt lat="43.033393182736184" lon="12.653395196329992"><ele>371.79999999999995</ele><time>2026-05-03T14:30:06Z</time></trkpt><trkpt lat="43.033476052002555" lon="12.653470380952303"><ele>374.59999999999997</ele><time>2026-05-03T14:30:07Z</time></trkpt><trkpt lat="43.033559629173084" lon="12.653478623708375"><ele>377.4</ele><time>2026-05-03T14:30:08Z</time></trkpt><trkpt lat="43.033652287470105" lon="12.653516154027454"><ele>380.2</ele><time>2026-05-03T14:30:09.999Z</time></trkpt><trkpt lat="43.03364755713165" lon="12.653647517718959"><ele>383.0</ele><time>2026-05-03T14:30:11.999Z</time></trkpt><trkpt lat="43.033644548391365" lon="12.653817081071207"><ele>386.0</ele><time>2026-05-03T14:30:13.999Z</time></trkpt><trkpt lat="43.03367403877517" lon="12.6539140962521"><ele>389.0</ele><time>2026-05-03T14:30:14.999Z</time></trkpt><trkpt lat="43.033688385774965" lon="12.65400885368674"><ele>392.0</ele><time>2026-05-03T14:30:15.999Z</time></trkpt><trkpt lat="43.03394775727362" lon="12.654076508002976"><ele>395.0</ele><time>2026-05-03T14:30:16.999Z</time></trkpt><trkpt lat="43.03408006402347" lon="12.654192429710557"><ele>399.0</ele><time>2026-05-03T14:30:17.999Z</time></trkpt><trkpt lat="43.03419926536224" lon="12.654300295172781"><ele>403.0</ele><time>2026-05-03T14:30:18.999Z</time></trkpt><trkpt lat="43.034297304306" lon="12.654429367202944"><ele>407.0</ele><time>2026-05-03T14:30:19.999Z</time></trkpt><trkpt lat="43.0344035826813" lon="12.654571605730263"><ele>411.0</ele><time>2026-05-03T14:30:20.999Z</time></trkpt><trkpt lat="43.03450807573118" lon="12.65469689077801"><ele>413.75</ele><time>2026-05-03T14:30:21.999Z</time></trkpt><trkpt lat="43.034618572555296" lon="12.654824223311836"><ele>416.5</ele><time>2026-05-03T14:30:22.999Z</time></trkpt><trkpt lat="43.0347271153921" lon="12.654940686244007"><ele>419.25</ele><time>2026-05-03T14:30:23.999Z</time></trkpt><trkpt lat="43.03482307753381" lon="12.655043911696346"><ele>422.0</ele><time>2026-05-03T14:30:24.999Z</time></trkpt><trkpt lat="43.03491894338769" lon="12.655150808124066"><ele>426.75</ele><time>2026-05-03T14:30:25.999Z</time></trkpt><trkpt lat="43.03500765189413" lon="12.655256529653188"><ele>431.5</ele><time>2026-05-03T14:30:26.999Z</time></trkpt><trkpt lat="43.03509615164264" lon="12.655364310689697"><ele>436.25</ele><time>2026-05-03T14:30:27.999Z</time></trkpt><trkpt lat="43.03519638914422" lon="12.655486038617427"><ele>441.0</ele><time>2026-05-03T14:30:28.999Z</time></trkpt><trkpt lat="43.035302965589" lon="12.655603406641111"><ele>444.0</ele><time>2026-05-03T14:30:29.999Z</time></trkpt><trkpt lat="43.03541099287388" lon="12.655725742589556"><ele>447.0</ele><time>2026-05-03T14:30:30.999Z</time></trkpt><trkpt lat="43.03550411929629" lon="12.655828715865093"><ele>450.0</ele><time>2026-05-03T14:30:31.999Z</time></trkpt><trkpt lat="43.03557714543405" lon="12.655885371438954"><ele>453.0</ele><time>2026-05-03T14:30:32.999Z</time></trkpt><trkpt lat="43.03563830521279" lon="12.655912290219549"><ele>456.0</ele><time>2026-05-03T14:30:33.999Z</time></trkpt><trkpt lat="43.03572041182383" lon="12.655885749330276"><ele>456.0</ele><time>2026-05-03T14:30:35.999Z</time></trkpt><trkpt lat="43.035785930647016" lon="12.655860499195924"><ele>456.0</ele><time>2026-05-03T14:30:37.999Z</time></trkpt><trkpt lat="43.035854619544224" lon="12.655940279797942"><ele>456.0</ele><time>2026-05-03T14:30:41.999Z</time></trkpt><trkpt lat="43.03590137532543" lon="12.65601908854271"><ele>456.0</ele><time>2026-05-03T14:30:43.999Z</time></trkpt><trkpt lat="43.035834745336025" lon="12.656072860777906"><ele>456.0</ele><time>2026-05-03T14:30:47.999Z</time></trkpt><trkpt lat="43.035771055411175" lon="12.656138630609766"><ele>456.0</ele><time>2026-05-03T14:30:50.999Z</time></trkpt><trkpt lat="43.03571089527781" lon="12.656181873375939"><ele>459.1666666666667</ele><time>2026-05-03T14:30:55.999Z</time></trkpt><trkpt lat="43.03563718976993" lon="12.656245073702573"><ele>462.33333333333337</ele><time>2026-05-03T14:30:59.999Z</time></trkpt><trkpt lat="43.035567232208905" lon="12.65629067039988"><ele>465.5</ele><time>2026-05-03T14:31:00.999Z</time></trkpt><trkpt lat="43.03550901540144" lon="12.656350349383667"><ele>468.6666666666667</ele><time>2026-05-03T14:31:01.999Z</time></trkpt><trkpt lat="43.03546045977231" lon="12.656410561179172"><ele>471.83333333333337</ele><time>2026-05-03T14:31:02.999Z</time></trkpt><trkpt lat="43.03539104357282" lon="12.656502496636154"><ele>475.0</ele><time>2026-05-03T14:31:04.999Z</time></trkpt><trkpt lat="43.03531548365562" lon="12.656576111512571"><ele>475.0</ele><time>2026-05-03T14:31:06.999Z</time></trkpt><trkpt lat="43.035257614013915" lon="12.656628050386301"><ele>475.0</ele><time>2026-05-03T14:31:08.999Z</time></trkpt><trkpt lat="43.03515219602607" lon="12.656770372608992"><ele>475.0</ele><time>2026-05-03T14:32:55.999Z</time></trkpt><trkpt lat="43.035037982431284" lon="12.656911382233602"><ele>475.0</ele><time>2026-05-03T14:32:57.999Z</time></trkpt><trkpt lat="43.03496814230002" lon="12.657010488271718"><ele>476.0</ele><time>2026-05-03T14:32:58.999Z</time></trkpt><trkpt lat="43.03490936715992" lon="12.657090756706728"><ele>477.0</ele><time>2026-05-03T14:32:59.999Z</time></trkpt><trkpt lat="43.03482526345734" lon="12.657183414457863"><ele>478.0</ele><time>2026-05-03T14:33:01.999Z</time></trkpt><trkpt lat="43.03470463920487" lon="12.65725708071044"><ele>479.0</ele><time>2026-05-03T14:33:03.999Z</time></trkpt><trkpt lat="43.034625850096575" lon="12.657323252235523"><ele>480.0</ele><time>2026-05-03T14:33:04.999Z</time></trkpt><trkpt lat="43.034570094867" lon="12.657376216316957"><ele>480.0</ele><time>2026-05-03T14:33:05.999Z</time></trkpt><trkpt lat="43.03450753664202" lon="12.657446703715603"><ele>480.0</ele><time>2026-05-03T14:33:06.999Z</time></trkpt><trkpt lat="43.034422279897555" lon="12.657538543283836"><ele>480.0</ele><time>2026-05-03T14:33:07.999Z</time></trkpt><trkpt lat="43.0343541744732" lon="12.657603281123528"><ele>480.0</ele><time>2026-05-03T14:33:08.999Z</time></trkpt><trkpt lat="43.03428930464334" lon="12.65766137178519"><ele>480.0</ele><time>2026-05-03T14:33:09.999Z</time></trkpt><trkpt lat="43.03424079943056" lon="12.65772223138635"><ele>480.0</ele><time>2026-05-03T14:33:10.999Z</time></trkpt><trkpt lat="43.03417701506875" lon="12.65785148780645"><ele>481.0</ele><time>2026-05-03T14:33:12.999Z</time></trkpt><trkpt lat="43.03410945321969" lon="12.657900510316018"><ele>482.0</ele><time>2026-05-03T14:33:14.999Z</time></trkpt><trkpt lat="43.034040729342216" lon="12.657977856708488"><ele>483.0</ele><time>2026-05-03T14:33:16.999Z</time></trkpt><trkpt lat="43.03395882623909" lon="12.658037445380506"><ele>484.0</ele><time>2026-05-03T14:33:18.999Z</time></trkpt><trkpt lat="43.03390074594653" lon="12.658149644065372"><ele>485.0</ele><time>2026-05-03T14:33:20.999Z</time></trkpt><trkpt lat="43.033828354325514" lon="12.658303157216892"><ele>484.99999999999994</ele><time>2026-05-03T14:33:22.999Z</time></trkpt><trkpt lat="43.0337867074045" lon="12.658385043077752"><ele>485.0</ele><time>2026-05-03T14:33:23.999Z</time></trkpt><trkpt lat="43.03375354771254" lon="12.658458533240617"><ele>485.0</ele><time>2026-05-03T14:33:24.999Z</time></trkpt><trkpt lat="43.033715299676494" lon="12.658544324734029"><ele>485.0</ele><time>2026-05-03T14:33:26Z</time></trkpt><trkpt lat="43.03365925307412" lon="12.658671195829085"><ele>484.99999999999994</ele><time>2026-05-03T14:33:28Z</time></trkpt><trkpt lat="43.03359322800629" lon="12.658740383149198"><ele>485.0</ele><time>2026-05-03T14:33:30Z</time></trkpt><trkpt lat="43.03350593218636" lon="12.65883756423749"><ele>484.8</ele><time>2026-05-03T14:33:32Z</time></trkpt><trkpt lat="43.03342185927013" lon="12.658956531883188"><ele>484.6</ele><time>2026-05-03T14:33:34Z</time></trkpt><trkpt lat="43.03335618695525" lon="12.659052187834432"><ele>484.4</ele><time>2026-05-03T14:33:36Z</time></trkpt><trkpt lat="43.03330245338333" lon="12.659120455700549"><ele>484.2</ele><time>2026-05-03T14:33:54Z</time></trkpt><trkpt lat="43.0332258271238" lon="12.659205435130659"><ele>484.0</ele><time>2026-05-03T14:33:57Z</time></trkpt><trkpt lat="43.03315568766282" lon="12.65928970705594"><ele>484.00000000000006</ele><time>2026-05-03T14:34:00Z</time></trkpt><trkpt lat="43.03310815726822" lon="12.659356298906886"><ele>484.0</ele><time>2026-05-03T14:34:01Z</time></trkpt><trkpt lat="43.03305215176878" lon="12.659444495520386"><ele>484.0</ele><time>2026-05-03T14:34:03Z</time></trkpt><trkpt lat="43.03300096657806" lon="12.659537967380912"><ele>484.0</ele><time>2026-05-03T14:34:05Z</time></trkpt><trkpt lat="43.03294552556625" lon="12.659635190348896"><ele>484.00000000000006</ele><time>2026-05-03T14:34:08Z</time></trkpt><trkpt lat="43.03288813594193" lon="12.659727874824709"><ele>484.0</ele><time>2026-05-03T14:34:10Z</time></trkpt><trkpt lat="43.03281685516397" lon="12.659800197643444"><ele>483.83333333333337</ele><time>2026-05-03T14:34:14Z</time></trkpt><trkpt lat="43.03277357521905" lon="12.659865738639093"><ele>483.6666666666667</ele><time>2026-05-03T14:34:15Z</time></trkpt><trkpt lat="43.03271734585008" lon="12.659926147229697"><ele>483.5</ele><time>2026-05-03T14:34:18Z</time></trkpt><trkpt lat="43.032661677383594" lon="12.659977735860998"><ele>483.33333333333337</ele><time>2026-05-03T14:34:20Z</time></trkpt><trkpt lat="43.03258359736338" lon="12.660050221002061"><ele>483.1666666666667</ele><time>2026-05-03T14:34:21.999Z</time></trkpt><trkpt lat="43.03252534842783" lon="12.660087329932063"><ele>483.0</ele><time>2026-05-03T14:34:24.999Z</time></trkpt><trkpt lat="43.03243960328121" lon="12.660150399178676"><ele>483.0</ele><time>2026-05-03T14:34:27.999Z</time></trkpt><trkpt lat="43.03239224265739" lon="12.660224554528053"><ele>483.0</ele><time>2026-05-03T14:34:29.999Z</time></trkpt><trkpt lat="43.032340093778174" lon="12.66029722498757"><ele>483.0</ele><time>2026-05-03T14:34:30.999Z</time></trkpt><trkpt lat="43.03229031594707" lon="12.660362513187666"><ele>483.0</ele><time>2026-05-03T14:34:33.999Z</time></trkpt><trkpt lat="43.032225681448885" lon="12.66041059133078"><ele>483.0</ele><time>2026-05-03T14:34:34.999Z</time></trkpt><trkpt lat="43.03214702975903" lon="12.66048575480359"><ele>483.0</ele><time>2026-05-03T14:34:36.999Z</time></trkpt><trkpt lat="43.03206996307423" lon="12.660545654654925"><ele>482.8333333333333</ele><time>2026-05-03T14:34:38.999Z</time></trkpt><trkpt lat="43.03201285057278" lon="12.660593145117899"><ele>482.66666666666663</ele><time>2026-05-03T14:34:40.999Z</time></trkpt><trkpt lat="43.031954969470235" lon="12.66063636552901"><ele>482.5</ele><time>2026-05-03T14:34:43.999Z</time></trkpt><trkpt lat="43.03184208013592" lon="12.66070401723381"><ele>482.3333333333333</ele><time>2026-05-03T14:34:46.999Z</time></trkpt><trkpt lat="43.03176298484764" lon="12.660764317288416"><ele>482.16666666666663</ele><time>2026-05-03T14:34:48.999Z</time></trkpt><trkpt lat="43.03169506412415" lon="12.660795251289377"><ele>482.0</ele><time>2026-05-03T14:34:50.999Z</time></trkpt><trkpt lat="43.03162497239542" lon="12.660861246031242"><ele>481.99999999999994</ele><time>2026-05-03T14:34:52.999Z</time></trkpt><trkpt lat="43.03157416661635" lon="12.660924550050137"><ele>482.0</ele><time>2026-05-03T14:34:54.999Z</time></trkpt><trkpt lat="43.03149279088888" lon="12.660994410935826"><ele>482.0</ele><time>2026-05-03T14:35:30.999Z</time></trkpt><trkpt lat="43.031436596878" lon="12.66107009051491"><ele>482.0</ele><time>2026-05-03T14:35:33Z</time></trkpt><trkpt lat="43.031376339372635" lon="12.661145642641992"><ele>481.99999999999994</ele><time>2026-05-03T14:35:35Z</time></trkpt><trkpt lat="43.03133014998791" lon="12.661236619474835"><ele>482.0</ele><time>2026-05-03T14:35:37Z</time></trkpt><trkpt lat="43.03126473544021" lon="12.6613266900773"><ele>486.6</ele><time>2026-05-03T14:35:39Z</time></trkpt><trkpt lat="43.031201053821206" lon="12.661444131592075"><ele>491.20000000000005</ele><time>2026-05-03T14:35:41Z</time></trkpt><trkpt lat="43.031134625861874" lon="12.661543419683218"><ele>495.8</ele><time>2026-05-03T14:35:43Z</time></trkpt><trkpt lat="43.03105998400229" lon="12.661642842985055"><ele>500.4</ele><time>2026-05-03T14:35:45Z</time></trkpt><trkpt lat="43.03099685751754" lon="12.661746642519523"><ele>505.0</ele><time>2026-05-03T14:35:47Z</time></trkpt><trkpt lat="43.03090768482397" lon="12.66186538264889"><ele>507.6666666666667</ele><time>2026-05-03T14:35:49Z</time></trkpt><trkpt lat="43.03085011665232" lon="12.661949632969149"><ele>510.33333333333337</ele><time>2026-05-03T14:35:51Z</time></trkpt><trkpt lat="43.03078986304976" lon="12.662033563317836"><ele>513.0</ele><time>2026-05-03T14:36:05Z</time></trkpt><trkpt lat="43.03081589485301" lon="12.662136073056807"><ele>515.6666666666666</ele><time>2026-05-03T14:36:07Z</time></trkpt><trkpt lat="43.030836632907224" lon="12.6622735418739"><ele>518.3333333333333</ele><time>2026-05-03T14:36:09Z</time></trkpt><trkpt lat="43.030874790235615" lon="12.662374969242482"><ele>521.0</ele><time>2026-05-03T14:36:11Z</time></trkpt><trkpt lat="43.030882000583766" lon="12.662461507362053"><ele>521.0</ele><time>2026-05-03T14:36:12Z</time></trkpt><trkpt lat="43.030900451164605" lon="12.662606572191116"><ele>521.0</ele><time>2026-05-03T14:36:14Z</time></trkpt><trkpt lat="43.030902454929375" lon="12.662704277001884"><ele>521.0</ele><time>2026-05-03T14:36:17Z</time></trkpt><trkpt lat="43.03096052794568" lon="12.662777206936303"><ele>521.0</ele><time>2026-05-03T14:36:28.999Z</time></trkpt><trkpt lat="43.030951832627544" lon="12.66288893692976"><ele>521.0</ele><time>2026-05-03T14:36:52.999Z</time></trkpt><trkpt lat="43.03091185108279" lon="12.663003979863545"><ele>521.0</ele><time>2026-05-03T14:36:54.999Z</time></trkpt><trkpt lat="43.03091370583689" lon="12.663136891321718"><ele>523.1666666666666</ele><time>2026-05-03T14:36:56.999Z</time></trkpt><trkpt lat="43.03091833682895" lon="12.66325605291248"><ele>525.3333333333333</ele><time>2026-05-03T14:37:00.999Z</time></trkpt><trkpt lat="43.030960365371435" lon="12.663380552529881"><ele>527.5</ele><time>2026-05-03T14:37:02.999Z</time></trkpt><trkpt lat="43.03095943837706" lon="12.663480500085262"><ele>529.6666666666666</ele><time>2026-05-03T14:37:04.999Z</time></trkpt><trkpt lat="43.030984308494624" lon="12.663567464967644"><ele>531.8333333333334</ele><time>2026-05-03T14:37:05.999Z</time></trkpt><trkpt lat="43.031010888291895" lon="12.663667475502077"><ele>534.0</ele><time>2026-05-03T14:37:07.999Z</time></trkpt><trkpt lat="43.031032315184795" lon="12.66376991296169"><ele>536.3333333333334</ele><time>2026-05-03T14:37:09.999Z</time></trkpt><trkpt lat="43.03104464620633" lon="12.663869318904572"><ele>538.6666666666666</ele><time>2026-05-03T14:37:12.999Z</time></trkpt><trkpt lat="43.03106917777817" lon="12.663964062994445"><ele>541.0</ele><time>2026-05-03T14:37:16.999Z</time></trkpt><trkpt lat="43.03108170785565" lon="12.664068404541162"><ele>543.3333333333333</ele><time>2026-05-03T14:37:20.999Z</time></trkpt><trkpt lat="43.03110398428484" lon="12.664178147432326"><ele>545.6666666666666</ele><time>2026-05-03T14:37:27.999Z</time></trkpt><trkpt lat="43.031054750487726" lon="12.664256154670797"><ele>548.0</ele><time>2026-05-03T14:37:34.999Z</time></trkpt><trkpt lat="43.031010878524285" lon="12.664324999410994"><ele>548.0</ele><time>2026-05-03T14:37:40Z</time></trkpt><trkpt lat="43.03096875818233" lon="12.66439333126376"><ele>548.0</ele><time>2026-05-03T14:37:55Z</time></trkpt><trkpt lat="43.030878680900685" lon="12.66439653656464"><ele>548.0</ele><time>2026-05-03T14:40:27Z</time></trkpt><trkpt lat="43.03075578000267" lon="12.664525263508615"><ele>548.0</ele><time>2026-05-03T14:40:29Z</time></trkpt><trkpt lat="43.03068235660428" lon="12.6645874002338"><ele>548.0</ele><time>2026-05-03T14:40:31Z</time></trkpt><trkpt lat="43.03062782906328" lon="12.66468322085294"><ele>546.6</ele><time>2026-05-03T14:40:33Z</time></trkpt><trkpt lat="43.03058032988851" lon="12.664831765394622"><ele>545.1999999999999</ele><time>2026-05-03T14:40:35Z</time></trkpt><trkpt lat="43.03053613290202" lon="12.664947808681307"><ele>543.8</ele><time>2026-05-03T14:40:37Z</time></trkpt><trkpt lat="43.03050730441433" lon="12.665060663273621"><ele>542.4</ele><time>2026-05-03T14:40:39Z</time></trkpt><trkpt lat="43.03046339235578" lon="12.665143524882483"><ele>541.0</ele><time>2026-05-03T14:40:41.999Z</time></trkpt><trkpt lat="43.03041946760843" lon="12.665231017137401"><ele>544.3333333333334</ele><time>2026-05-03T14:40:43.999Z</time></trkpt><trkpt lat="43.03039659556305" lon="12.665323295416494"><ele>547.6666666666667</ele><time>2026-05-03T14:40:46.999Z</time></trkpt><trkpt lat="43.030354456121046" lon="12.665411923284895"><ele>551.0</ele><time>2026-05-03T14:40:48.999Z</time></trkpt><trkpt lat="43.03033024038249" lon="12.665540541331072"><ele>554.3333333333334</ele><time>2026-05-03T14:40:50.999Z</time></trkpt><trkpt lat="43.030289088350315" lon="12.665655003328155"><ele>557.6666666666666</ele><time>2026-05-03T14:40:52.999Z</time></trkpt><trkpt lat="43.030276888401815" lon="12.665775917937644"><ele>561.0</ele><time>2026-05-03T14:40:54.999Z</time></trkpt><trkpt lat="43.03028135375644" lon="12.665889433498483"><ele>561.0</ele><time>2026-05-03T14:40:55.999Z</time></trkpt><trkpt lat="43.030291373097114" lon="12.665995122394579"><ele>561.0</ele><time>2026-05-03T14:40:56.999Z</time></trkpt><trkpt lat="43.03029584080413" lon="12.666085782373246"><ele>561.0</ele><time>2026-05-03T14:40:57.999Z</time></trkpt><trkpt lat="43.03030239882345" lon="12.666171868058404"><ele>561.0</ele><time>2026-05-03T14:40:58.999Z</time></trkpt><trkpt lat="43.030315732654984" lon="12.666296692891986"><ele>561.0</ele><time>2026-05-03T14:41:00.999Z</time></trkpt><trkpt lat="43.03032243186206" lon="12.666401691462234"><ele>561.0</ele><time>2026-05-03T14:41:01.999Z</time></trkpt><trkpt lat="43.03032721831637" lon="12.66653185815022"><ele>564.0</ele><time>2026-05-03T14:41:03.999Z</time></trkpt><trkpt lat="43.03034285541208" lon="12.666632145966581"><ele>567.0</ele><time>2026-05-03T14:41:05.999Z</time></trkpt><trkpt lat="43.030355138277514" lon="12.66676544783845"><ele>570.0</ele><time>2026-05-03T14:41:07.999Z</time></trkpt><trkpt lat="43.030360740832556" lon="12.66687055532766"><ele>573.0</ele><time>2026-05-03T14:41:10.999Z</time></trkpt><trkpt lat="43.03040930131638" lon="12.667016731374883"><ele>576.0</ele><time>2026-05-03T14:41:13.999Z</time></trkpt><trkpt lat="43.03045608620202" lon="12.667124163019961"><ele>577.8333333333334</ele><time>2026-05-03T14:41:15.999Z</time></trkpt><trkpt lat="43.030466650918925" lon="12.667213777676963"><ele>579.6666666666666</ele><time>2026-05-03T14:41:19.999Z</time></trkpt><trkpt lat="43.030503469654946" lon="12.667294642836563"><ele>581.5</ele><time>2026-05-03T14:41:23.999Z</time></trkpt><trkpt lat="43.0305478938693" lon="12.667375149187256"><ele>583.3333333333333</ele><time>2026-05-03T14:43:31.999Z</time></trkpt><trkpt lat="43.03053205983588" lon="12.667460693473235"><ele>585.1666666666666</ele><time>2026-05-03T14:43:35.999Z</time></trkpt><trkpt lat="43.03047215025446" lon="12.667608700954188"><ele>587.0</ele><time>2026-05-03T14:43:37.999Z</time></trkpt><trkpt lat="43.0304609952115" lon="12.667750369507509"><ele>587.8000000000001</ele><time>2026-05-03T14:43:39.999Z</time></trkpt><trkpt lat="43.03044213743436" lon="12.66788917211149"><ele>588.6</ele><time>2026-05-03T14:43:41.999Z</time></trkpt><trkpt lat="43.03043061897682" lon="12.66803178889099"><ele>589.4000000000001</ele><time>2026-05-03T14:43:43.999Z</time></trkpt><trkpt lat="43.03038416932842" lon="12.66814511403963"><ele>590.2</ele><time>2026-05-03T14:43:45.999Z</time></trkpt><trkpt lat="43.030327823908166" lon="12.668274762797044"><ele>591.0</ele><time>2026-05-03T14:43:47.999Z</time></trkpt><trkpt lat="43.03027194712646" lon="12.66838923690347"><ele>591.0</ele><time>2026-05-03T14:43:49.999Z</time></trkpt><trkpt lat="43.030213002009546" lon="12.66850398002841"><ele>591.0</ele><time>2026-05-03T14:43:51.999Z</time></trkpt><trkpt lat="43.03017534522636" lon="12.66857309048978"><ele>591.0</ele><time>2026-05-03T14:43:52.999Z</time></trkpt><trkpt lat="43.030123186371824" lon="12.668650254816894"><ele>591.0</ele><time>2026-05-03T14:43:53.999Z</time></trkpt><trkpt lat="43.030074920396004" lon="12.668719828091994"><ele>591.0</ele><time>2026-05-03T14:43:54.999Z</time></trkpt><trkpt lat="43.030028820213474" lon="12.668790884827803"><ele>591.0</ele><time>2026-05-03T14:43:56Z</time></trkpt><trkpt lat="43.029958268017616" lon="12.668926994237097"><ele>585.2</ele><time>2026-05-03T14:43:58Z</time></trkpt><trkpt lat="43.02987643732022" lon="12.66904972144415"><ele>579.4000000000001</ele><time>2026-05-03T14:44:00Z</time></trkpt><trkpt lat="43.02983275784959" lon="12.669113055844127"><ele>573.6</ele><time>2026-05-03T14:44:01Z</time></trkpt><trkpt lat="43.02977129548858" lon="12.669234627920032"><ele>567.8000000000001</ele><time>2026-05-03T14:44:03Z</time></trkpt><trkpt lat="43.02973752764558" lon="12.669314448919788"><ele>562.0</ele><time>2026-05-03T14:44:04Z</time></trkpt><trkpt lat="43.02965541085285" lon="12.669435185196775"><ele>564.2</ele><time>2026-05-03T14:44:08Z</time></trkpt><trkpt lat="43.029609160357204" lon="12.669520179702095"><ele>566.4000000000001</ele><time>2026-05-03T14:44:09Z</time></trkpt><trkpt lat="43.029549575471826" lon="12.669651460538642"><ele>568.5999999999999</ele><time>2026-05-03T14:44:11Z</time></trkpt><trkpt lat="43.02948185307569" lon="12.669734130650495"><ele>570.8</ele><time>2026-05-03T14:44:13Z</time></trkpt><trkpt lat="43.0293808103182" lon="12.66983369601529"><ele>573.0</ele><time>2026-05-03T14:44:15Z</time></trkpt><trkpt lat="43.02933940475863" lon="12.6699034140047"><ele>573.0</ele><time>2026-05-03T14:44:16Z</time></trkpt><trkpt lat="43.02929042293529" lon="12.670029476565526"><ele>573.0</ele><time>2026-05-03T14:44:18Z</time></trkpt><trkpt lat="43.029270326006014" lon="12.670127025583605"><ele>573.0</ele><time>2026-05-03T14:44:19Z</time></trkpt><trkpt lat="43.029248341888064" lon="12.670278642739264"><ele>573.0</ele><time>2026-05-03T14:44:21Z</time></trkpt><trkpt lat="43.02925939170626" lon="12.670416559468155"><ele>573.0</ele><time>2026-05-03T14:44:23Z</time></trkpt><trkpt lat="43.02923519169222" lon="12.670545544555075"><ele>573.1999999999999</ele><time>2026-05-03T14:44:25Z</time></trkpt><trkpt lat="43.029231660239695" lon="12.67070975727138"><ele>573.4</ele><time>2026-05-03T14:44:27Z</time></trkpt><trkpt lat="43.0292310252148" lon="12.670837712730782"><ele>573.5999999999999</ele><time>2026-05-03T14:44:29Z</time></trkpt><trkpt lat="43.0292260013052" lon="12.67097981034905"><ele>573.8</ele><time>2026-05-03T14:44:31Z</time></trkpt><trkpt lat="43.029231096367994" lon="12.671106007133716"><ele>574.0</ele><time>2026-05-03T14:44:33Z</time></trkpt><trkpt lat="43.0292381824263" lon="12.67120157037171"><ele>574.0</ele><time>2026-05-03T14:44:35Z</time></trkpt><trkpt lat="43.0292262554424" lon="12.671288076870962"><ele>574.0</ele><time>2026-05-03T14:45:29.999Z</time></trkpt><trkpt lat="43.02920954254957" lon="12.67138730780071"><ele>574.0</ele><time>2026-05-03T14:45:31.999Z</time></trkpt><trkpt lat="43.029165753540454" lon="12.671459579823367"><ele>574.0</ele><time>2026-05-03T14:45:32.999Z</time></trkpt><trkpt lat="43.029127725021965" lon="12.67153708241041"><ele>574.0</ele><time>2026-05-03T14:45:33.999Z</time></trkpt><trkpt lat="43.02913973325674" lon="12.671691014695046"><ele>574.0</ele><time>2026-05-03T14:45:35.999Z</time></trkpt><trkpt lat="43.029144662474025" lon="12.671854480080496"><ele>574.8571428571429</ele><time>2026-05-03T14:45:37.999Z</time></trkpt><trkpt lat="43.029150790789686" lon="12.671942280976664"><ele>575.7142857142858</ele><time>2026-05-03T14:45:38.999Z</time></trkpt><trkpt lat="43.02916074111695" lon="12.672038144979673"><ele>576.5714285714286</ele><time>2026-05-03T14:45:39.999Z</time></trkpt><trkpt lat="43.02916797312808" lon="12.672130320702372"><ele>577.4285714285714</ele><time>2026-05-03T14:45:40.999Z</time></trkpt><trkpt lat="43.029176117838354" lon="12.672220144448234"><ele>578.2857142857143</ele><time>2026-05-03T14:45:41.999Z</time></trkpt><trkpt lat="43.029202925198234" lon="12.672310637037018"><ele>579.1428571428571</ele><time>2026-05-03T14:45:42.999Z</time></trkpt><trkpt lat="43.02925281813824" lon="12.67241137054663"><ele>580.0</ele><time>2026-05-03T14:45:44.999Z</time></trkpt><trkpt lat="43.029291755588645" lon="12.672491425645427"><ele>580.0</ele><time>2026-05-03T14:45:46.999Z</time></trkpt><trkpt lat="43.02930422735984" lon="12.6725821966901"><ele>580.0</ele><time>2026-05-03T14:45:53.999Z</time></trkpt><trkpt lat="43.02933012027223" lon="12.672703402898572"><ele>580.0</ele><time>2026-05-03T14:45:55.999Z</time></trkpt><trkpt lat="43.02937591564519" lon="12.672849152949054"><ele>580.0</ele><time>2026-05-03T14:45:58.999Z</time></trkpt><trkpt lat="43.029395985996985" lon="12.672939737751651"><ele>580.0</ele><time>2026-05-03T14:46:02Z</time></trkpt><trkpt lat="43.029408432518956" lon="12.673026495962299"><ele>580.0</ele><time>2026-05-03T14:46:03Z</time></trkpt><trkpt lat="43.02944844261545" lon="12.67312725287553"><ele>580.8571428571429</ele><time>2026-05-03T14:46:06Z</time></trkpt><trkpt lat="43.029462678885125" lon="12.673218662958584"><ele>581.7142857142858</ele><time>2026-05-03T14:46:08Z</time></trkpt><trkpt lat="43.0294715243408" lon="12.673322082614709"><ele>582.5714285714286</ele><time>2026-05-03T14:46:11Z</time></trkpt><trkpt lat="43.02947002188922" lon="12.673409861009832"><ele>583.4285714285714</ele><time>2026-05-03T14:46:13Z</time></trkpt><trkpt lat="43.02947111966506" lon="12.67350403678556"><ele>584.2857142857142</ele><time>2026-05-03T14:46:16Z</time></trkpt><trkpt lat="43.02948297843307" lon="12.673597690226583"><ele>585.1428571428571</ele><time>2026-05-03T14:46:20Z</time></trkpt><trkpt lat="43.02947103096854" lon="12.673715659752432"><ele>586.0</ele><time>2026-05-03T14:46:22Z</time></trkpt><trkpt lat="43.02946403814184" lon="12.673805907955499"><ele>586.1428571428571</ele><time>2026-05-03T14:46:25Z</time></trkpt><trkpt lat="43.029453980108194" lon="12.673920763755468"><ele>586.2857142857142</ele><time>2026-05-03T14:46:30Z</time></trkpt><trkpt lat="43.02946395284966" lon="12.67401373652526"><ele>586.4285714285714</ele><time>2026-05-03T14:46:33Z</time></trkpt><trkpt lat="43.029487794013185" lon="12.674112844306528"><ele>586.5714285714286</ele><time>2026-05-03T14:46:39Z</time></trkpt><trkpt lat="43.02955623311217" lon="12.67416126298312"><ele>586.7142857142858</ele><time>2026-05-03T14:46:43Z</time></trkpt><trkpt lat="43.02959902924654" lon="12.674228486767012"><ele>586.8571428571429</ele><time>2026-05-03T14:46:46Z</time></trkpt><trkpt lat="43.02958771926317" lon="12.674332683495305"><ele>587.0</ele><time>2026-05-03T14:46:50Z</time></trkpt><trkpt lat="43.02960684388176" lon="12.674436605782239"><ele>586.6666666666666</ele><time>2026-05-03T14:47:29.999Z</time></trkpt><trkpt lat="43.0295904244295" lon="12.674528264555464"><ele>586.3333333333333</ele><time>2026-05-03T14:47:31.999Z</time></trkpt><trkpt lat="43.02956845180156" lon="12.674644707132511"><ele>586.0</ele><time>2026-05-03T14:47:34.999Z</time></trkpt><trkpt lat="43.029580458235515" lon="12.674752282432953"><ele>585.6666666666666</ele><time>2026-05-03T14:47:36.999Z</time></trkpt><trkpt lat="43.0295833298601" lon="12.674851157851354"><ele>585.3333333333334</ele><time>2026-05-03T14:47:47.999Z</time></trkpt><trkpt lat="43.029645461334376" lon="12.674947560003234"><ele>585.0</ele><time>2026-05-03T14:47:49.999Z</time></trkpt><trkpt lat="43.02969609187828" lon="12.67504393813627"><ele>585.0</ele><time>2026-05-03T14:47:50.999Z</time></trkpt><trkpt lat="43.02975644447877" lon="12.675140211466564"><ele>585.0</ele><time>2026-05-03T14:47:51.999Z</time></trkpt><trkpt lat="43.02984751497862" lon="12.675283622992303"><ele>585.0</ele><time>2026-05-03T14:47:53.999Z</time></trkpt><trkpt lat="43.02987749843524" lon="12.675383876559318"><ele>585.0</ele><time>2026-05-03T14:47:55.999Z</time></trkpt><trkpt lat="43.029953838677784" lon="12.675348034530375"><ele>585.0</ele><time>2026-05-03T14:50:44Z</time></trkpt><trkpt lat="43.02998037107384" lon="12.675245886367382"><ele>585.0</ele><time>2026-05-03T14:55:15Z</time></trkpt><trkpt lat="43.02996937495256" lon="12.675155413934775"><ele>585.0</ele><time>2026-05-03T14:55:35.999Z</time></trkpt><trkpt lat="43.02993404542772" lon="12.675081379903956"><ele>585.0</ele><time>2026-05-03T14:55:42.999Z</time></trkpt><trkpt lat="43.02991565620138" lon="12.67497063514676"><ele>585.0</ele><time>2026-05-03T14:55:45.999Z</time></trkpt><trkpt lat="43.029903728816755" lon="12.674846876659487"><ele>585.0</ele><time>2026-05-03T14:55:47.999Z</time></trkpt><trkpt lat="43.02988694036338" lon="12.674754712089175"><ele>585.0</ele><time>2026-05-03T14:55:49.999Z</time></trkpt><trkpt lat="43.02990238417391" lon="12.674658799109343"><ele>585.0</ele><time>2026-05-03T14:55:52.999Z</time></trkpt><trkpt lat="43.02993865123378" lon="12.6745873959232"><ele>585.0</ele><time>2026-05-03T14:55:55.999Z</time></trkpt><trkpt lat="43.02997059337992" lon="12.674504467530792"><ele>585.0</ele><time>2026-05-03T14:55:58.999Z</time></trkpt><trkpt lat="43.02999163239822" lon="12.674378365896759"><ele>585.0</ele><time>2026-05-03T14:56:01.999Z</time></trkpt><trkpt lat="43.03004106101569" lon="12.674288778481694"><ele>585.0</ele><time>2026-05-03T14:56:04.999Z</time></trkpt><trkpt lat="43.030078549834364" lon="12.674191847515676"><ele>585.0</ele><time>2026-05-03T14:56:06.999Z</time></trkpt><trkpt lat="43.03009363547602" lon="12.674097535536843"><ele>585.0</ele><time>2026-05-03T14:57:56.999Z</time></trkpt><trkpt lat="43.03009937507834" lon="12.673997337199166"><ele>592.8</ele><time>2026-05-03T14:58:28.999Z</time></trkpt><trkpt lat="43.030130476326235" lon="12.673921664886633"><ele>600.6</ele><time>2026-05-03T15:05:47Z</time></trkpt><trkpt lat="43.03014657991561" lon="12.673743625541505"><ele>608.4</ele><time>2026-05-03T15:05:50Z</time></trkpt><trkpt lat="43.03019781795918" lon="12.673583046391727"><ele>616.2</ele><time>2026-05-03T15:06:01Z</time></trkpt><trkpt lat="43.03026632935928" lon="12.673524707336004"><ele>624.0</ele><time>2026-05-03T15:06:06Z</time></trkpt><trkpt lat="43.030308469852294" lon="12.673386915141098"><ele>624.0</ele><time>2026-05-03T15:06:09Z</time></trkpt><trkpt lat="43.03034163151452" lon="12.673290603173184"><ele>624.0</ele><time>2026-05-03T15:06:10Z</time></trkpt><trkpt lat="43.0303774702746" lon="12.673210016091152"><ele>624.0</ele><time>2026-05-03T15:06:11Z</time></trkpt><trkpt lat="43.030405176797075" lon="12.67310353231628"><ele>624.0</ele><time>2026-05-03T15:06:18.999Z</time></trkpt><trkpt lat="43.03044807334519" lon="12.672999363905388"><ele>624.0</ele><time>2026-05-03T15:06:20.999Z</time></trkpt><trkpt lat="43.03048653687735" lon="12.672908155125821"><ele>624.0</ele><time>2026-05-03T15:06:22.999Z</time></trkpt><trkpt lat="43.030482642307604" lon="12.672818221225443"><ele>624.0</ele><time>2026-05-03T15:06:24.999Z</time></trkpt><trkpt lat="43.03055142919066" lon="12.672818283042545"><ele>624.0</ele><time>2026-05-03T15:06:37.999Z</time></trkpt><trkpt lat="43.03062688596655" lon="12.672789652802175"><ele>624.0</ele><time>2026-05-03T15:06:41.999Z</time></trkpt><trkpt lat="43.03070511990026" lon="12.672761789261768"><ele>624.0</ele><time>2026-05-03T15:06:43.999Z</time></trkpt><trkpt lat="43.030778132830974" lon="12.672728502446306"><ele>624.0</ele><time>2026-05-03T15:06:45.999Z</time></trkpt><trkpt lat="43.03083001555771" lon="12.672663607531797"><ele>624.0</ele><time>2026-05-03T15:06:49.999Z</time></trkpt><trkpt lat="43.03089761072054" lon="12.672609104359832"><ele>630.5</ele><time>2026-05-03T15:06:51.999Z</time></trkpt><trkpt lat="43.030996391812494" lon="12.67257835485767"><ele>637.0</ele><time>2026-05-03T15:06:53.999Z</time></trkpt><trkpt lat="43.031072620288924" lon="12.672510056310891"><ele>643.5</ele><time>2026-05-03T15:06:55.999Z</time></trkpt><trkpt lat="43.03114497225567" lon="12.672496407211675"><ele>650.0</ele><time>2026-05-03T15:06:57.999Z</time></trkpt><trkpt lat="43.031223279875455" lon="12.67245088316392"><ele>656.5</ele><time>2026-05-03T15:06:59.999Z</time></trkpt><trkpt lat="43.031305794568944" lon="12.67238903292298"><ele>663.0</ele><time>2026-05-03T15:07:02Z</time></trkpt><trkpt lat="43.03136193813536" lon="12.672311545953907"><ele>663.0</ele><time>2026-05-03T15:07:07Z</time></trkpt><trkpt lat="43.03137854138232" lon="12.67222129663059"><ele>663.0</ele><time>2026-05-03T15:09:05.999Z</time></trkpt><trkpt lat="43.03135376594125" lon="12.672133243118259"><ele>663.0</ele><time>2026-05-03T15:09:13Z</time></trkpt><trkpt lat="43.03134099169685" lon="12.672004900211334"><ele>663.0</ele><time>2026-05-03T15:09:15Z</time></trkpt><trkpt lat="43.03134075567194" lon="12.671903015890235"><ele>663.0</ele><time>2026-05-03T15:09:18Z</time></trkpt><trkpt lat="43.031353029818575" lon="12.671786987638013"><ele>663.0</ele><time>2026-05-03T15:09:20Z</time></trkpt><trkpt lat="43.03134967773399" lon="12.67169915706621"><ele>661.5</ele><time>2026-05-03T15:09:22Z</time></trkpt><trkpt lat="43.03137699747028" lon="12.671570945436006"><ele>660.0</ele><time>2026-05-03T15:09:25Z</time></trkpt><trkpt lat="43.03140000147653" lon="12.671459666875668"><ele>658.5</ele><time>2026-05-03T15:09:27Z</time></trkpt><trkpt lat="43.03142841930937" lon="12.671375068447903"><ele>657.0</ele><time>2026-05-03T15:09:30Z</time></trkpt><trkpt lat="43.03149972491681" lon="12.67127505153162"><ele>655.5</ele><time>2026-05-03T15:09:33Z</time></trkpt><trkpt lat="43.031553066562154" lon="12.671216464831867"><ele>654.0</ele><time>2026-05-03T15:09:37Z</time></trkpt><trkpt lat="43.031588747302855" lon="12.671140735034092"><ele>663.4000000000001</ele><time>2026-05-03T15:09:43Z</time></trkpt><trkpt lat="43.03165204942512" lon="12.671051405095897"><ele>672.8</ele><time>2026-05-03T15:09:46Z</time></trkpt><trkpt lat="43.03173080167901" lon="12.670945256156582"><ele>682.2</ele><time>2026-05-03T15:09:48Z</time></trkpt><trkpt lat="43.03178884878099" lon="12.670865829396748"><ele>691.5999999999999</ele><time>2026-05-03T15:09:49Z</time></trkpt><trkpt lat="43.031879920384846" lon="12.670772245594538"><ele>701.0</ele><time>2026-05-03T15:09:51Z</time></trkpt><trkpt lat="43.03192651979708" lon="12.670672464074409"><ele>701.0</ele><time>2026-05-03T15:09:53Z</time></trkpt><trkpt lat="43.031990453666815" lon="12.670427552951718"><ele>701.0</ele><time>2026-05-03T15:10:01Z</time></trkpt><trkpt lat="43.03204986049131" lon="12.670375466163986"><ele>701.0</ele><time>2026-05-03T15:10:04Z</time></trkpt><trkpt lat="43.03209943285807" lon="12.6703069384501"><ele>701.0</ele><time>2026-05-03T15:10:06Z</time></trkpt><trkpt lat="43.03216386388787" lon="12.670242482271645"><ele>701.0</ele><time>2026-05-03T15:10:08Z</time></trkpt><trkpt lat="43.03222535996613" lon="12.67019832499896"><ele>700.8333333333333</ele><time>2026-05-03T15:10:12Z</time></trkpt><trkpt lat="43.032294580857986" lon="12.67011811998932"><ele>700.6666666666666</ele><time>2026-05-03T15:10:14Z</time></trkpt><trkpt lat="43.03232733825147" lon="12.670023981845677"><ele>700.5</ele><time>2026-05-03T15:10:16Z</time></trkpt><trkpt lat="43.032379641163516" lon="12.669937292550719"><ele>700.3333333333334</ele><time>2026-05-03T15:10:20Z</time></trkpt><trkpt lat="43.03244527948757" lon="12.669933843294471"><ele>700.1666666666667</ele><time>2026-05-03T15:10:23.999Z</time></trkpt><trkpt lat="43.0325102668201" lon="12.669863799940865"><ele>700.0</ele><time>2026-05-03T15:10:26.999Z</time></trkpt><trkpt lat="43.032582226998414" lon="12.669852519903282"><ele>706.5</ele><time>2026-05-03T15:10:28.999Z</time></trkpt><trkpt lat="43.032649213877264" lon="12.669800698355308"><ele>713.0</ele><time>2026-05-03T15:10:30.999Z</time></trkpt><trkpt lat="43.0327008110143" lon="12.6697396390286"><ele>719.5</ele><time>2026-05-03T15:10:32.999Z</time></trkpt><trkpt lat="43.03277286324342" lon="12.669712193239643"><ele>726.0</ele><time>2026-05-03T15:10:35.999Z</time></trkpt><trkpt lat="43.032802525583925" lon="12.669617712740978"><ele>732.5</ele><time>2026-05-03T15:11:25Z</time></trkpt><trkpt lat="43.03289361962294" lon="12.669582972742374"><ele>739.0</ele><time>2026-05-03T15:11:28Z</time></trkpt><trkpt lat="43.03295589331035" lon="12.669561007559285"><ele>739.0</ele><time>2026-05-03T15:11:30Z</time></trkpt><trkpt lat="43.033043643797505" lon="12.669532192089756"><ele>739.0</ele><time>2026-05-03T15:11:33Z</time></trkpt><trkpt lat="43.033113982714134" lon="12.669510960124628"><ele>739.0</ele><time>2026-05-03T15:11:35Z</time></trkpt><trkpt lat="43.033261283714765" lon="12.669466893033652"><ele>739.0</ele><time>2026-05-03T15:11:44Z</time></trkpt><trkpt lat="43.03332494027238" lon="12.669418669911499"><ele>739.0</ele><time>2026-05-03T15:12:05Z</time></trkpt><trkpt lat="43.033360934295274" lon="12.669333429146581"><ele>741.5</ele><time>2026-05-03T15:25:34Z</time></trkpt><trkpt lat="43.033391875152866" lon="12.669231788151965"><ele>744.0</ele><time>2026-05-03T15:25:38Z</time></trkpt><trkpt lat="43.033428702011435" lon="12.669131150833733"><ele>746.5</ele><time>2026-05-03T15:25:40Z</time></trkpt><trkpt lat="43.033460636484364" lon="12.66903313150941"><ele>749.0</ele><time>2026-05-03T15:25:42.999Z</time></trkpt><trkpt lat="43.03350782911968" lon="12.668947342880735"><ele>751.5</ele><time>2026-05-03T15:25:46.999Z</time></trkpt><trkpt lat="43.03356123809696" lon="12.668850635303498"><ele>754.0</ele><time>2026-05-03T15:25:50.999Z</time></trkpt><trkpt lat="43.033608290803414" lon="12.668775802027383"><ele>754.0</ele><time>2026-05-03T15:25:52.999Z</time></trkpt><trkpt lat="43.03365635620996" lon="12.668699234851845"><ele>754.0</ele><time>2026-05-03T15:25:54.999Z</time></trkpt><trkpt lat="43.03371120285926" lon="12.668635134005708"><ele>754.0</ele><time>2026-05-03T15:26:11Z</time></trkpt><trkpt lat="43.03378011725459" lon="12.668595938268783"><ele>754.0</ele><time>2026-05-03T15:26:14Z</time></trkpt><trkpt lat="43.03385720494762" lon="12.668541561477285"><ele>754.0</ele><time>2026-05-03T15:26:16Z</time></trkpt><trkpt lat="43.03393080434605" lon="12.668489103471893"><ele>754.0</ele><time>2026-05-03T15:26:18Z</time></trkpt><trkpt lat="43.03400546757748" lon="12.668438638557294"><ele>756.1428571428571</ele><time>2026-05-03T15:26:28Z</time></trkpt><trkpt lat="43.03405969880672" lon="12.668393052519145"><ele>758.2857142857142</ele><time>2026-05-03T15:26:30Z</time></trkpt><trkpt lat="43.03411999831742" lon="12.668327563543238"><ele>760.4285714285713</ele><time>2026-05-03T15:26:33Z</time></trkpt><trkpt lat="43.034160845214515" lon="12.66825324484067"><ele>762.5714285714286</ele><time>2026-05-03T15:26:35Z</time></trkpt><trkpt lat="43.034230868006674" lon="12.668182962166638"><ele>764.7142857142858</ele><time>2026-05-03T15:26:38Z</time></trkpt><trkpt lat="43.03426804379024" lon="12.668102447846843"><ele>766.8571428571428</ele><time>2026-05-03T15:27:19Z</time></trkpt><trkpt lat="43.03432255708073" lon="12.668026410883478"><ele>769.0</ele><time>2026-05-03T15:27:21.999Z</time></trkpt><trkpt lat="43.034394660372236" lon="12.667971490571253"><ele>769.0</ele><time>2026-05-03T15:27:26.999Z</time></trkpt><trkpt lat="43.034456780399985" lon="12.667910709555306"><ele>769.0</ele><time>2026-05-03T15:27:29.999Z</time></trkpt><trkpt lat="43.03451656977142" lon="12.667868821529655"><ele>769.0</ele><time>2026-05-03T15:27:32.999Z</time></trkpt><trkpt lat="43.03455666624457" lon="12.667796004675166"><ele>769.0</ele><time>2026-05-03T15:27:37.999Z</time></trkpt><trkpt lat="43.034608378616106" lon="12.667701254957617"><ele>769.0</ele><time>2026-05-03T15:27:42.999Z</time></trkpt><trkpt lat="43.03465675169873" lon="12.667615934851213"><ele>769.0</ele><time>2026-05-03T15:27:46.999Z</time></trkpt><trkpt lat="43.03469453639564" lon="12.667537172418202"><ele>769.0</ele><time>2026-05-03T15:28:15Z</time></trkpt><trkpt lat="43.034735817103595" lon="12.667470139098512"><ele>770.0</ele><time>2026-05-03T15:28:21Z</time></trkpt><trkpt lat="43.03478590774107" lon="12.667414739003146"><ele>771.0</ele><time>2026-05-03T15:28:25Z</time></trkpt><trkpt lat="43.03483451524595" lon="12.667359805494897"><ele>772.0</ele><time>2026-05-03T15:28:31Z</time></trkpt><trkpt lat="43.03486987607252" lon="12.667274487421095"><ele>773.0</ele><time>2026-05-03T15:28:39Z</time></trkpt><trkpt lat="43.03491302672608" lon="12.667180372072302"><ele>774.0</ele><time>2026-05-03T15:28:43Z</time></trkpt><trkpt lat="43.034966485967274" lon="12.667121100314477"><ele>775.0</ele><time>2026-05-03T15:28:47Z</time></trkpt><trkpt lat="43.03500627216097" lon="12.667047586454634"><ele>776.0</ele><time>2026-05-03T15:28:56Z</time></trkpt><trkpt lat="43.035045313677095" lon="12.666955324748825"><ele>773.1666666666667</ele><time>2026-05-03T15:29:19Z</time></trkpt><trkpt lat="43.03509513246132" lon="12.666892866899618"><ele>770.3333333333334</ele><time>2026-05-03T15:29:21.999Z</time></trkpt><trkpt lat="43.03510695988945" lon="12.666778469295522"><ele>767.5</ele><time>2026-05-03T15:29:24.999Z</time></trkpt><trkpt lat="43.03505964817505" lon="12.666681087102859"><ele>764.6666666666667</ele><time>2026-05-03T15:29:30.999Z</time></trkpt><trkpt lat="43.03500483009361" lon="12.666569176176843"><ele>761.8333333333334</ele><time>2026-05-03T15:29:33.999Z</time></trkpt><trkpt lat="43.0349805969148" lon="12.66645141564605"><ele>759.0</ele><time>2026-05-03T15:29:36.999Z</time></trkpt><trkpt lat="43.0349416705567" lon="12.666347098396592"><ele>758.5</ele><time>2026-05-03T15:29:39.999Z</time></trkpt><trkpt lat="43.034881644048056" lon="12.66630079881846"><ele>758.0</ele><time>2026-05-03T15:29:42.999Z</time></trkpt><trkpt lat="43.034887218514825" lon="12.666192413045177"><ele>757.5</ele><time>2026-05-03T15:30:43Z</time></trkpt><trkpt lat="43.03494918687055" lon="12.66607026295202"><ele>757.0</ele><time>2026-05-03T15:30:46Z</time></trkpt><trkpt lat="43.03501679689222" lon="12.66602073952149"><ele>756.5</ele><time>2026-05-03T15:30:48Z</time></trkpt><trkpt lat="43.03512577980284" lon="12.666010373925962"><ele>756.0</ele><time>2026-05-03T15:30:53Z</time></trkpt><trkpt lat="43.035155142092705" lon="12.66592433931672"><ele>756.0</ele><time>2026-05-03T15:30:57Z</time></trkpt><trkpt lat="43.035358753787804" lon="12.66595306501662"><ele>756.0</ele><time>2026-05-03T15:31:15Z</time></trkpt><trkpt lat="43.03542513024329" lon="12.665919895983158"><ele>756.0</ele><time>2026-05-03T15:31:27Z</time></trkpt><trkpt lat="43.03548655683186" lon="12.665861606067384"><ele>756.0</ele><time>2026-05-03T15:31:37.999Z</time></trkpt><trkpt lat="43.035537478159874" lon="12.66577031652731"><ele>756.0</ele><time>2026-05-03T15:31:40.999Z</time></trkpt><trkpt lat="43.0356021813407" lon="12.665716537030606"><ele>756.0</ele><time>2026-05-03T15:31:44.999Z</time></trkpt><trkpt lat="43.03566236271349" lon="12.665666758538286"><ele>756.0</ele><time>2026-05-03T15:31:49.999Z</time></trkpt><trkpt lat="43.03571014186789" lon="12.665603038154197"><ele>756.0</ele><time>2026-05-03T15:31:53.999Z</time></trkpt><trkpt lat="43.03575944750177" lon="12.665549124686201"><ele>756.0</ele><time>2026-05-03T15:33:05Z</time></trkpt><trkpt lat="43.03570724868396" lon="12.665613174969481"><ele>756.0</ele><time>2026-05-03T15:34:30Z</time></trkpt><trkpt lat="43.03565050500324" lon="12.66565632964371"><ele>756.0</ele><time>2026-05-03T15:35:10Z</time></trkpt><trkpt lat="43.0355878142949" lon="12.665669889020755"><ele>756.0</ele><time>2026-05-03T15:35:26Z</time></trkpt><trkpt lat="43.035553585566134" lon="12.66574364170332"><ele>756.0</ele><time>2026-05-03T15:40:05.999Z</time></trkpt><trkpt lat="43.03553315502238" lon="12.665826903331295"><ele>756.0</ele><time>2026-05-03T15:40:11.999Z</time></trkpt><trkpt lat="43.0354723610748" lon="12.665859829783967"><ele>756.0</ele><time>2026-05-03T15:40:44Z</time></trkpt><trkpt lat="43.03552800880583" lon="12.66581636575421"><ele>756.0</ele><time>2026-05-03T15:41:18Z</time></trkpt><trkpt lat="43.035567458064484" lon="12.665747582880874"><ele>756.0</ele><time>2026-05-03T15:41:22Z</time></trkpt><trkpt lat="43.03561522141483" lon="12.665674416949331"><ele>756.0</ele><time>2026-05-03T15:42:06.999Z</time></trkpt><trkpt lat="43.035680300602245" lon="12.665635703812688"><ele>756.0</ele><time>2026-05-03T15:43:13Z</time></trkpt><trkpt lat="43.03577015840863" lon="12.665542469650086"><ele>756.0</ele><time>2026-05-03T15:55:26.001Z</time></trkpt><trkpt lat="43.035789718396416" lon="12.665447501707071"><ele>756.0</ele><time>2026-05-03T15:55:36.001Z</time></trkpt><trkpt lat="43.035854510171774" lon="12.665289689400035"><ele>756.0</ele><time>2026-05-03T15:56:42Z</time></trkpt><trkpt lat="43.03589435898766" lon="12.66521309082708"><ele>756.0</ele><time>2026-05-03T15:56:47Z</time></trkpt><trkpt lat="43.036034318389355" lon="12.665159794588952"><ele>756.0</ele><time>2026-05-03T16:02:02Z</time></trkpt><trkpt lat="43.03608679946358" lon="12.665086507269503"><ele>756.0</ele><time>2026-05-03T16:02:29Z</time></trkpt><trkpt lat="43.036017502864915" lon="12.665099531657155"><ele>756.0</ele><time>2026-05-03T16:02:54Z</time></trkpt><trkpt lat="43.03597416372944" lon="12.665186556189218"><ele>756.0</ele><time>2026-05-03T16:03:02.999Z</time></trkpt><trkpt lat="43.035917407038" lon="12.665103022021665"><ele>756.0</ele><time>2026-05-03T16:08:20Z</time></trkpt><trkpt lat="43.03587657975205" lon="12.66519444102366"><ele>756.0</ele><time>2026-05-03T16:09:23.999Z</time></trkpt><trkpt lat="43.03584753402812" lon="12.66528496784743"><ele>756.0</ele><time>2026-05-03T16:09:32.999Z</time></trkpt><trkpt lat="43.03580285379389" lon="12.66536993589221"><ele>756.0</ele><time>2026-05-03T16:09:43.999Z</time></trkpt><trkpt lat="43.035756240983005" lon="12.665459004716798"><ele>756.0</ele><time>2026-05-03T16:09:52.999Z</time></trkpt><trkpt lat="43.03572487362406" lon="12.665534831644669"><ele>756.0</ele><time>2026-05-03T16:09:57.999Z</time></trkpt><trkpt lat="43.03575826005958" lon="12.665620047583028"><ele>756.0</ele><time>2026-05-03T16:10:11Z</time></trkpt><trkpt lat="43.03569185077945" lon="12.665618003653657"><ele>756.0</ele><time>2026-05-03T16:11:17.999Z</time></trkpt><trkpt lat="43.03561152433001" lon="12.665661769293605"><ele>756.0</ele><time>2026-05-03T16:11:21.999Z</time></trkpt><trkpt lat="43.03556565969667" lon="12.665748526577893"><ele>756.0</ele><time>2026-05-03T16:11:24.999Z</time></trkpt><trkpt lat="43.03552700171438" lon="12.665826790782123"><ele>756.0</ele><time>2026-05-03T16:11:28.999Z</time></trkpt><trkpt lat="43.03546916137208" lon="12.665863417584442"><ele>756.0</ele><time>2026-05-03T16:12:43Z</time></trkpt><trkpt lat="43.035421539455264" lon="12.665926492373435"><ele>756.0</ele><time>2026-05-03T16:12:49Z</time></trkpt><trkpt lat="43.03536294499467" lon="12.665967124230146"><ele>756.0</ele><time>2026-05-03T16:12:54Z</time></trkpt><trkpt lat="43.035306358986794" lon="12.665928560092793"><ele>756.0</ele><time>2026-05-03T16:12:59Z</time></trkpt><trkpt lat="43.03525421971348" lon="12.665879873245272"><ele>756.0</ele><time>2026-05-03T16:13:02Z</time></trkpt><trkpt lat="43.03518248602875" lon="12.665914638584832"><ele>756.0</ele><time>2026-05-03T16:13:06Z</time></trkpt><trkpt lat="43.03511736839687" lon="12.665953837960258"><ele>756.0</ele><time>2026-05-03T16:13:09Z</time></trkpt><trkpt lat="43.03503611492152" lon="12.665967851801696"><ele>756.0</ele><time>2026-05-03T16:13:11Z</time></trkpt><trkpt lat="43.03494280504843" lon="12.666003309087145"><ele>756.0</ele><time>2026-05-03T16:13:13Z</time></trkpt><trkpt lat="43.03492741789575" lon="12.66608947233596"><ele>756.0</ele><time>2026-05-03T16:13:15.999Z</time></trkpt><trkpt lat="43.034870964708844" lon="12.66613567225756"><ele>756.0</ele><time>2026-05-03T16:13:25.999Z</time></trkpt><trkpt lat="43.03488170943786" lon="12.66623084615452"><ele>756.0</ele><time>2026-05-03T16:14:47Z</time></trkpt><trkpt lat="43.03493818913732" lon="12.66631805158986"><ele>756.5</ele><time>2026-05-03T16:14:52Z</time></trkpt><trkpt lat="43.03499243138156" lon="12.666441006723485"><ele>757.0</ele><time>2026-05-03T16:14:55Z</time></trkpt><trkpt lat="43.03499635398488" lon="12.666541741645638"><ele>757.5</ele><time>2026-05-03T16:14:57Z</time></trkpt><trkpt lat="43.035043559902675" lon="12.666635257293128"><ele>758.0</ele><time>2026-05-03T16:14:59Z</time></trkpt><trkpt lat="43.03509276034179" lon="12.666701520684825"><ele>758.5</ele><time>2026-05-03T16:15:01Z</time></trkpt><trkpt lat="43.03516190922034" lon="12.666795935447968"><ele>759.0</ele><time>2026-05-03T16:15:13Z</time></trkpt><trkpt lat="43.035102174663315" lon="12.666825258167181"><ele>759.0</ele><time>2026-05-03T16:15:16Z</time></trkpt><trkpt lat="43.03503934722577" lon="12.666897048256379"><ele>759.0</ele><time>2026-05-03T16:15:20.999Z</time></trkpt><trkpt lat="43.03505846661965" lon="12.66699844832218"><ele>759.0</ele><time>2026-05-03T16:16:52Z</time></trkpt><trkpt lat="43.03500312197733" lon="12.667056637924082"><ele>759.0</ele><time>2026-05-03T16:16:57Z</time></trkpt><trkpt lat="43.034948541891524" lon="12.667116598228125"><ele>759.0</ele><time>2026-05-03T16:17:39.999Z</time></trkpt><trkpt lat="43.03491386406621" lon="12.667195150841485"><ele>759.0</ele><time>2026-05-03T16:17:45.999Z</time></trkpt><trkpt lat="43.03486959222822" lon="12.66726104073627"><ele>759.0</ele><time>2026-05-03T16:17:49.999Z</time></trkpt><trkpt lat="43.03481078431487" lon="12.667318857138941"><ele>760.6666666666666</ele><time>2026-05-03T16:17:55.999Z</time></trkpt><trkpt lat="43.034760531868066" lon="12.667388654259147"><ele>762.3333333333333</ele><time>2026-05-03T16:18:05.999Z</time></trkpt><trkpt lat="43.03472921377552" lon="12.66746361474284"><ele>764.0</ele><time>2026-05-03T16:18:08.999Z</time></trkpt><trkpt lat="43.03467733889819" lon="12.667582992530631"><ele>765.6666666666666</ele><time>2026-05-03T16:18:11.999Z</time></trkpt><trkpt lat="43.03462963889101" lon="12.66766363683302"><ele>767.3333333333333</ele><time>2026-05-03T16:18:15.999Z</time></trkpt><trkpt lat="43.03458502000316" lon="12.667731354987016"><ele>769.0</ele><time>2026-05-03T16:18:18.999Z</time></trkpt><trkpt lat="43.034558378662496" lon="12.667847728116055"><ele>768.9999999999999</ele><time>2026-05-03T16:18:52Z</time></trkpt><trkpt lat="43.034494940458615" lon="12.66789346193024"><ele>769.0</ele><time>2026-05-03T16:18:56Z</time></trkpt><trkpt lat="43.03442724759856" lon="12.667955963031734"><ele>769.0</ele><time>2026-05-03T16:19:00Z</time></trkpt><trkpt lat="43.03436620472979" lon="12.668025816150102"><ele>769.0</ele><time>2026-05-03T16:19:04Z</time></trkpt><trkpt lat="43.0342967986249" lon="12.668090088241959"><ele>768.9999999999999</ele><time>2026-05-03T16:19:08Z</time></trkpt><trkpt lat="43.03422639384444" lon="12.668178298916004"><ele>769.0</ele><time>2026-05-03T16:19:10Z</time></trkpt><trkpt lat="43.03417608060191" lon="12.668240671047874"><ele>769.0</ele><time>2026-05-03T16:19:14Z</time></trkpt><trkpt lat="43.03411393661197" lon="12.668287130481202"><ele>769.0</ele><time>2026-05-03T16:19:19Z</time></trkpt><trkpt lat="43.03406611477115" lon="12.668363049195811"><ele>769.0</ele><time>2026-05-03T16:19:22Z</time></trkpt><trkpt lat="43.03400977719236" lon="12.668452965790165"><ele>769.0</ele><time>2026-05-03T16:20:01.999Z</time></trkpt><trkpt lat="43.03406048917844" lon="12.66839408064368"><ele>769.0</ele><time>2026-05-03T16:20:25.999Z</time></trkpt><trkpt lat="43.03407981404984" lon="12.668301515944789"><ele>769.0</ele><time>2026-05-03T16:20:37Z</time></trkpt><trkpt lat="43.03414044893507" lon="12.668265060893926"><ele>769.0</ele><time>2026-05-03T16:20:41Z</time></trkpt><trkpt lat="43.034195294505814" lon="12.66822244092207"><ele>768.9999999999999</ele><time>2026-05-03T16:20:46Z</time></trkpt><trkpt lat="43.03423220274323" lon="12.668140493866103"><ele>769.0</ele><time>2026-05-03T16:20:53Z</time></trkpt><trkpt lat="43.03427961344563" lon="12.668067402395513"><ele>769.0</ele><time>2026-05-03T16:20:58Z</time></trkpt><trkpt lat="43.03433690926125" lon="12.668021374060183"><ele>769.0</ele><time>2026-05-03T16:21:04Z</time></trkpt><trkpt lat="43.034395441339406" lon="12.667977166130463"><ele>768.9999999999999</ele><time>2026-05-03T16:21:10Z</time></trkpt><trkpt lat="43.034460846567356" lon="12.667934569517538"><ele>769.0</ele><time>2026-05-03T16:21:22Z</time></trkpt><trkpt lat="43.03454849829639" lon="12.66782440494348"><ele>769.0</ele><time>2026-05-03T16:21:35.999Z</time></trkpt><trkpt lat="43.034475610595436" lon="12.667877075973413"><ele>769.0</ele><time>2026-05-03T16:22:43Z</time></trkpt><trkpt lat="43.034422043774846" lon="12.66793241286369"><ele>769.0</ele><time>2026-05-03T16:22:46Z</time></trkpt><trkpt lat="43.0343615953626" lon="12.667987836810589"><ele>769.0</ele><time>2026-05-03T16:22:51Z</time></trkpt><trkpt lat="43.03430237662843" lon="12.668034385490499"><ele>769.0</ele><time>2026-05-03T16:22:54Z</time></trkpt><trkpt lat="43.03426357046344" lon="12.668105648556416"><ele>769.0</ele><time>2026-05-03T16:22:57Z</time></trkpt><trkpt lat="43.03420448635797" lon="12.668171090281886"><ele>769.0</ele><time>2026-05-03T16:23:00Z</time></trkpt><trkpt lat="43.034160316233674" lon="12.668238498966279"><ele>764.5714285714286</ele><time>2026-05-03T16:23:03Z</time></trkpt><trkpt lat="43.03411733217526" lon="12.668324268888451"><ele>760.1428571428572</ele><time>2026-05-03T16:23:06Z</time></trkpt><trkpt lat="43.03405496114737" lon="12.668369346111477"><ele>755.7142857142858</ele><time>2026-05-03T16:23:08Z</time></trkpt><trkpt lat="43.03403046025007" lon="12.66845033602569"><ele>751.2857142857142</ele><time>2026-05-03T16:34:24.999Z</time></trkpt><trkpt lat="43.033957568758474" lon="12.668461280139743"><ele>746.8571428571429</ele><time>2026-05-03T16:34:48.999Z</time></trkpt><trkpt lat="43.03390474817496" lon="12.668516587245993"><ele>742.4285714285714</ele><time>2026-05-03T16:34:51.999Z</time></trkpt><trkpt lat="43.03382441074951" lon="12.668559105676598"><ele>738.0</ele><time>2026-05-03T16:34:54.999Z</time></trkpt><trkpt lat="43.03376005574188" lon="12.668571284158315"><ele>740.6666666666666</ele><time>2026-05-03T16:34:59.999Z</time></trkpt><trkpt lat="43.03370072201356" lon="12.66861318236914"><ele>743.3333333333334</ele><time>2026-05-03T16:35:03.999Z</time></trkpt><trkpt lat="43.033639596209824" lon="12.66869487248578"><ele>746.0</ele><time>2026-05-03T16:35:11.999Z</time></trkpt><trkpt lat="43.0335718001551" lon="12.668753247509313"><ele>748.6666666666667</ele><time>2026-05-03T16:35:15Z</time></trkpt><trkpt lat="43.03354492732827" lon="12.668862199645984"><ele>751.3333333333334</ele><time>2026-05-03T16:35:19Z</time></trkpt><trkpt lat="43.033506652471615" lon="12.668949697413785"><ele>754.0</ele><time>2026-05-03T16:35:22Z</time></trkpt><trkpt lat="43.03345461177268" lon="12.669003483607773"><ele>753.9999999999999</ele><time>2026-05-03T16:35:34Z</time></trkpt><trkpt lat="43.03344374991155" lon="12.669105957632453"><ele>754.0</ele><time>2026-05-03T16:35:39Z</time></trkpt><trkpt lat="43.03341226819277" lon="12.66919928885408"><ele>754.0</ele><time>2026-05-03T16:35:42Z</time></trkpt><trkpt lat="43.03338361081966" lon="12.669281380257203"><ele>754.0</ele><time>2026-05-03T16:35:47Z</time></trkpt><trkpt lat="43.033394054687335" lon="12.669371582905201"><ele>754.0</ele><time>2026-05-03T16:35:54Z</time></trkpt><trkpt lat="43.03334166351244" lon="12.669423584496695"><ele>753.9999999999999</ele><time>2026-05-03T16:36:16.999Z</time></trkpt><trkpt lat="43.03328342245529" lon="12.669462353150847"><ele>754.0</ele><time>2026-05-03T16:36:18.999Z</time></trkpt><trkpt lat="43.03321811947729" lon="12.669494938172434"><ele>751.8571428571428</ele><time>2026-05-03T16:36:21.999Z</time></trkpt><trkpt lat="43.03314450678274" lon="12.669504605380379"><ele>749.7142857142857</ele><time>2026-05-03T16:36:29.999Z</time></trkpt><trkpt lat="43.033056036782625" lon="12.669515208905908"><ele>747.5714285714286</ele><time>2026-05-03T16:36:32.999Z</time></trkpt><trkpt lat="43.03299131394937" lon="12.6695280542247"><ele>745.4285714285713</ele><time>2026-05-03T16:36:34.999Z</time></trkpt><trkpt lat="43.03292710858266" lon="12.669547389530267"><ele>743.2857142857143</ele><time>2026-05-03T16:36:35.999Z</time></trkpt><trkpt lat="43.03286273300125" lon="12.669573316640621"><ele>741.1428571428571</ele><time>2026-05-03T16:36:38.999Z</time></trkpt><trkpt lat="43.032801736324586" lon="12.669604829361257"><ele>739.0</ele><time>2026-05-03T16:36:41.999Z</time></trkpt><trkpt lat="43.03272714498169" lon="12.669643311663094"><ele>739.0</ele><time>2026-05-03T16:36:43.999Z</time></trkpt><trkpt lat="43.032666874334424" lon="12.66966900776068"><ele>739.0</ele><time>2026-05-03T16:36:45.999Z</time></trkpt><trkpt lat="43.032610188104584" lon="12.669736447894254"><ele>739.0</ele><time>2026-05-03T16:36:47.999Z</time></trkpt><trkpt lat="43.03254286788874" lon="12.66978118749978"><ele>739.0</ele><time>2026-05-03T16:36:49.999Z</time></trkpt><trkpt lat="43.03248093278777" lon="12.669822864150548"><ele>739.0</ele><time>2026-05-03T16:36:51.999Z</time></trkpt><trkpt lat="43.03243483505273" lon="12.66989550000386"><ele>739.0</ele><time>2026-05-03T16:36:53.999Z</time></trkpt><trkpt lat="43.032377087737956" lon="12.6699554888187"><ele>739.0</ele><time>2026-05-03T16:39:10.999Z</time></trkpt><trkpt lat="43.03233393031069" lon="12.670018984632364"><ele>732.6666666666667</ele><time>2026-05-03T16:39:48Z</time></trkpt><trkpt lat="43.03228758674181" lon="12.670096313884068"><ele>726.3333333333334</ele><time>2026-05-03T16:39:56Z</time></trkpt><trkpt lat="43.03221280995438" lon="12.670139227182807"><ele>720.0</ele><time>2026-05-03T16:40:00Z</time></trkpt><trkpt lat="43.0321324390735" lon="12.670200721296025"><ele>713.6666666666666</ele><time>2026-05-03T16:40:04Z</time></trkpt><trkpt lat="43.03207113470832" lon="12.670292031960972"><ele>707.3333333333333</ele><time>2026-05-03T16:40:07Z</time></trkpt><trkpt lat="43.03202640406918" lon="12.670383445880555"><ele>701.0</ele><time>2026-05-03T16:40:09Z</time></trkpt><trkpt lat="43.03197600148894" lon="12.67046055527614"><ele>701.0</ele><time>2026-05-03T16:40:11Z</time></trkpt><trkpt lat="43.03194255543204" lon="12.670565974958324"><ele>701.0</ele><time>2026-05-03T16:40:14Z</time></trkpt><trkpt lat="43.031911801959765" lon="12.670642168572586"><ele>701.0</ele><time>2026-05-03T16:40:17Z</time></trkpt><trkpt lat="43.031876914525284" lon="12.670728124538787"><ele>701.0</ele><time>2026-05-03T16:40:19Z</time></trkpt><trkpt lat="43.03179601137519" lon="12.670816796857652"><ele>701.0</ele><time>2026-05-03T16:40:22Z</time></trkpt><trkpt lat="43.03173480949629" lon="12.670886461029326"><ele>701.0</ele><time>2026-05-03T16:40:24Z</time></trkpt><trkpt lat="43.03167872375502" lon="12.670953202278456"><ele>693.5</ele><time>2026-05-03T16:40:26Z</time></trkpt><trkpt lat="43.0316335675616" lon="12.67103400441464"><ele>686.0</ele><time>2026-05-03T16:40:29Z</time></trkpt><trkpt lat="43.03158104151688" lon="12.671083991274246"><ele>678.5</ele><time>2026-05-03T16:40:30.999Z</time></trkpt><trkpt lat="43.031520012673845" lon="12.671175076931364"><ele>671.0</ele><time>2026-05-03T16:40:32.999Z</time></trkpt><trkpt lat="43.03146831359071" lon="12.671261200789925"><ele>663.5</ele><time>2026-05-03T16:40:34.999Z</time></trkpt><trkpt lat="43.0314329728169" lon="12.671347651507418"><ele>656.0</ele><time>2026-05-03T16:40:36.999Z</time></trkpt><trkpt lat="43.03141368187017" lon="12.671440788382872"><ele>655.7142857142857</ele><time>2026-05-03T16:43:13.999Z</time></trkpt><trkpt lat="43.031400611654824" lon="12.671532194354171"><ele>655.4285714285714</ele><time>2026-05-03T16:43:18.999Z</time></trkpt><trkpt lat="43.03139320720298" lon="12.671622327727896"><ele>655.1428571428571</ele><time>2026-05-03T16:43:22.999Z</time></trkpt><trkpt lat="43.0313865238848" lon="12.67171236616532"><ele>654.8571428571429</ele><time>2026-05-03T16:43:26.999Z</time></trkpt><trkpt lat="43.031367109298024" lon="12.671810090452137"><ele>654.5714285714286</ele><time>2026-05-03T16:43:29.999Z</time></trkpt><trkpt lat="43.03135580121836" lon="12.671918867835181"><ele>654.2857142857142</ele><time>2026-05-03T16:43:32.999Z</time></trkpt><trkpt lat="43.03136841328229" lon="12.672014498691238"><ele>654.0</ele><time>2026-05-03T16:43:35.999Z</time></trkpt><trkpt lat="43.03136757191804" lon="12.67212645725399"><ele>655.5</ele><time>2026-05-03T16:43:38Z</time></trkpt><trkpt lat="43.03138587722786" lon="12.672209652659324"><ele>657.0</ele><time>2026-05-03T16:43:41Z</time></trkpt><trkpt lat="43.031336903504275" lon="12.67232091800302"><ele>658.5</ele><time>2026-05-03T16:43:47Z</time></trkpt><trkpt lat="43.03128002700929" lon="12.672374456741812"><ele>660.0</ele><time>2026-05-03T16:43:49Z</time></trkpt><trkpt lat="43.03121537717723" lon="12.67239286317049"><ele>661.5</ele><time>2026-05-03T16:43:51Z</time></trkpt><trkpt lat="43.03114189800121" lon="12.67242662868928"><ele>663.0</ele><time>2026-05-03T16:43:53Z</time></trkpt><trkpt lat="43.03106195178425" lon="12.672472175072462"><ele>663.0</ele><time>2026-05-03T16:43:55Z</time></trkpt><trkpt lat="43.030992342440605" lon="12.672527783542023"><ele>663.0</ele><time>2026-05-03T16:43:58Z</time></trkpt><trkpt lat="43.03092193634118" lon="12.672592392357682"><ele>663.0</ele><time>2026-05-03T16:44:01Z</time></trkpt><trkpt lat="43.03085520436548" lon="12.672637634339663"><ele>663.0</ele><time>2026-05-03T16:44:04Z</time></trkpt><trkpt lat="43.0307634582316" lon="12.672675531401461"><ele>663.0</ele><time>2026-05-03T16:44:07Z</time></trkpt><trkpt lat="43.03069070478472" lon="12.67271592414462"><ele>663.0</ele><time>2026-05-03T16:44:11Z</time></trkpt><trkpt lat="43.03060327244833" lon="12.672748934183213"><ele>656.5</ele><time>2026-05-03T16:44:15Z</time></trkpt><trkpt lat="43.0305344726863" lon="12.672784731060489"><ele>650.0</ele><time>2026-05-03T16:49:43.999Z</time></trkpt><trkpt lat="43.03051316845381" lon="12.672885889505931"><ele>643.5</ele><time>2026-05-03T16:49:48.999Z</time></trkpt><trkpt lat="43.03046281406897" lon="12.67299776824083"><ele>637.0</ele><time>2026-05-03T16:49:52.999Z</time></trkpt><trkpt lat="43.03041599615035" lon="12.673068921552884"><ele>630.5</ele><time>2026-05-03T16:49:54.999Z</time></trkpt><trkpt lat="43.03037100866592" lon="12.673164026862475"><ele>624.0</ele><time>2026-05-03T16:49:58Z</time></trkpt><trkpt lat="43.03035848276709" lon="12.673280742308773"><ele>624.0</ele><time>2026-05-03T16:50:01Z</time></trkpt><trkpt lat="43.030304421345605" lon="12.673374286384762"><ele>624.0</ele><time>2026-05-03T16:50:04Z</time></trkpt><trkpt lat="43.03027252075353" lon="12.67346251888406"><ele>624.0</ele><time>2026-05-03T16:50:07Z</time></trkpt><trkpt lat="43.030221182247864" lon="12.673534612054599"><ele>624.0</ele><time>2026-05-03T16:50:11Z</time></trkpt><trkpt lat="43.030184820049044" lon="12.673626258123706"><ele>624.0</ele><time>2026-05-03T16:50:15Z</time></trkpt><trkpt lat="43.03015499072742" lon="12.673712231600396"><ele>624.0</ele><time>2026-05-03T16:50:21Z</time></trkpt><trkpt lat="43.03013855981275" lon="12.673834683857553"><ele>624.0</ele><time>2026-05-03T16:50:24Z</time></trkpt><trkpt lat="43.030125374537235" lon="12.673934261903943"><ele>624.0</ele><time>2026-05-03T16:50:28Z</time></trkpt><trkpt lat="43.03011411741845" lon="12.67410622236223"><ele>624.0</ele><time>2026-05-03T16:50:56Z</time></trkpt><trkpt lat="43.03006456226289" lon="12.674235920700836"><ele>624.0</ele><time>2026-05-03T16:57:54.999Z</time></trkpt><trkpt lat="43.03004254366239" lon="12.674337565175172"><ele>624.0</ele><time>2026-05-03T16:57:56.999Z</time></trkpt><trkpt lat="43.03000808341228" lon="12.674426986322345"><ele>623.4285714285714</ele><time>2026-05-03T16:57:58.999Z</time></trkpt><trkpt lat="43.029970892419115" lon="12.674523957150083"><ele>622.8571428571428</ele><time>2026-05-03T16:58:00.999Z</time></trkpt><trkpt lat="43.02993796344449" lon="12.674608875480526"><ele>622.2857142857142</ele><time>2026-05-03T16:58:02.999Z</time></trkpt><trkpt lat="43.02994373093909" lon="12.674707517082034"><ele>621.7142857142858</ele><time>2026-05-03T16:58:04.999Z</time></trkpt><trkpt lat="43.02995478007902" lon="12.674825189811504"><ele>621.1428571428571</ele><time>2026-05-03T16:58:06.999Z</time></trkpt><trkpt lat="43.029965513984074" lon="12.674910261914471"><ele>620.5714285714286</ele><time>2026-05-03T16:58:08.999Z</time></trkpt><trkpt lat="43.030006408550086" lon="12.674981533565514"><ele>620.0</ele><time>2026-05-03T16:58:10.999Z</time></trkpt><trkpt lat="43.03001762070584" lon="12.675075854942842"><ele>620.0</ele><time>2026-05-03T16:58:12.999Z</time></trkpt><trkpt lat="43.03004815137188" lon="12.675173705636622"><ele>620.0</ele><time>2026-05-03T16:58:15.999Z</time></trkpt><trkpt lat="43.03004317311568" lon="12.675273962640743"><ele>620.0</ele><time>2026-05-03T16:58:18.999Z</time></trkpt><trkpt lat="43.02997896585375" lon="12.675287711595923"><ele>620.0</ele><time>2026-05-03T16:58:21Z</time></trkpt><trkpt lat="43.02990754963054" lon="12.67544673951774"><ele>620.0</ele><time>2026-05-03T16:59:12Z</time></trkpt><trkpt lat="43.029854854627274" lon="12.675369271935478"><ele>620.0</ele><time>2026-05-03T16:59:16Z</time></trkpt><trkpt lat="43.02981556384076" lon="12.67522165847555"><ele>613.0</ele><time>2026-05-03T16:59:18Z</time></trkpt><trkpt lat="43.02973716793675" lon="12.675115567780626"><ele>606.0</ele><time>2026-05-03T16:59:20Z</time></trkpt><trkpt lat="43.029673319522544" lon="12.674982710174755"><ele>599.0</ele><time>2026-05-03T16:59:22Z</time></trkpt><trkpt lat="43.02962709579592" lon="12.674879626808636"><ele>592.0</ele><time>2026-05-03T16:59:24Z</time></trkpt><trkpt lat="43.02956584721506" lon="12.674908459195914"><ele>585.0</ele><time>2026-05-03T16:59:26Z</time></trkpt><trkpt lat="43.029564483426924" lon="12.675023805835334"><ele>585.0</ele><time>2026-05-03T16:59:29Z</time></trkpt><trkpt lat="43.02955128493495" lon="12.675165194963558"><ele>585.0</ele><time>2026-05-03T16:59:37.999Z</time></trkpt><trkpt lat="43.02952473482049" lon="12.675255273883245"><ele>585.0</ele><time>2026-05-03T16:59:38.999Z</time></trkpt><trkpt lat="43.02943400951388" lon="12.675367036492641"><ele>585.0</ele><time>2026-05-03T16:59:40.999Z</time></trkpt><trkpt lat="43.029357165283436" lon="12.67543948486588"><ele>585.0</ele><time>2026-05-03T16:59:41.999Z</time></trkpt><trkpt lat="43.02927418194737" lon="12.675487067791874"><ele>584.1666666666666</ele><time>2026-05-03T16:59:42.999Z</time></trkpt><trkpt lat="43.029204065860306" lon="12.675521729980378"><ele>583.3333333333334</ele><time>2026-05-03T16:59:43.999Z</time></trkpt><trkpt lat="43.02911932842757" lon="12.675541638541548"><ele>582.5</ele><time>2026-05-03T16:59:44.999Z</time></trkpt><trkpt lat="43.02904482188186" lon="12.675519751569063"><ele>581.6666666666667</ele><time>2026-05-03T16:59:45.999Z</time></trkpt><trkpt lat="43.02897697567781" lon="12.67554457879053"><ele>580.8333333333334</ele><time>2026-05-03T16:59:46.999Z</time></trkpt><trkpt lat="43.02887508781346" lon="12.67552427781991"><ele>580.0</ele><time>2026-05-03T16:59:48.999Z</time></trkpt><trkpt lat="43.02890090411102" lon="12.675406807401737"><ele>580.0</ele><time>2026-05-03T16:59:50.999Z</time></trkpt><trkpt lat="43.02896828006598" lon="12.67531235896447"><ele>580.0</ele><time>2026-05-03T16:59:52.999Z</time></trkpt><trkpt lat="43.029006977985965" lon="12.675195926060425"><ele>580.0</ele><time>2026-05-03T16:59:54.999Z</time></trkpt><trkpt lat="43.02894106817539" lon="12.675187459596565"><ele>580.0</ele><time>2026-05-03T17:00:24.999Z</time></trkpt><trkpt lat="43.028869725864546" lon="12.6752580372784"><ele>580.0</ele><time>2026-05-03T17:00:27Z</time></trkpt><trkpt lat="43.028805600514445" lon="12.675290165207045"><ele>580.0</ele><time>2026-05-03T17:00:28Z</time></trkpt><trkpt lat="43.02873103464295" lon="12.675327270888886"><ele>580.0</ele><time>2026-05-03T17:00:29Z</time></trkpt><trkpt lat="43.028667922180375" lon="12.675342523760293"><ele>580.0</ele><time>2026-05-03T17:00:30Z</time></trkpt><trkpt lat="43.028602777344595" lon="12.67535857723702"><ele>580.0</ele><time>2026-05-03T17:00:31Z</time></trkpt><trkpt lat="43.02851534532558" lon="12.675371916286625"><ele>580.0</ele><time>2026-05-03T17:00:32Z</time></trkpt><trkpt lat="43.02843591614364" lon="12.675412073572168"><ele>580.0</ele><time>2026-05-03T17:00:33Z</time></trkpt><trkpt lat="43.02835594612226" lon="12.675466284358125"><ele>580.0</ele><time>2026-05-03T17:00:34Z</time></trkpt><trkpt lat="43.02825678502927" lon="12.675523105275012"><ele>574.0</ele><time>2026-05-03T17:00:35Z</time></trkpt><trkpt lat="43.02816477434221" lon="12.675585478653893"><ele>568.0</ele><time>2026-05-03T17:00:36Z</time></trkpt><trkpt lat="43.02807872444779" lon="12.675657387086993"><ele>562.0</ele><time>2026-05-03T17:00:37Z</time></trkpt><trkpt lat="43.02801918064861" lon="12.67573149781169"><ele>556.0</ele><time>2026-05-03T17:00:38Z</time></trkpt><trkpt lat="43.02796489975334" lon="12.675802494995478"><ele>550.0</ele><time>2026-05-03T17:00:39Z</time></trkpt><trkpt lat="43.02790499524081" lon="12.67587843150726"><ele>544.0</ele><time>2026-05-03T17:00:40Z</time></trkpt><trkpt lat="43.02783698469658" lon="12.67597179692123"><ele>544.0</ele><time>2026-05-03T17:00:41Z</time></trkpt><trkpt lat="43.02776693306602" lon="12.676066654698268"><ele>544.0</ele><time>2026-05-03T17:00:42Z</time></trkpt><trkpt lat="43.027694819806214" lon="12.676173887549997"><ele>544.0</ele><time>2026-05-03T17:00:43Z</time></trkpt><trkpt lat="43.02762972372357" lon="12.676295958170474"><ele>544.0</ele><time>2026-05-03T17:00:44Z</time></trkpt><trkpt lat="43.02755914457529" lon="12.676389076898486"><ele>544.0</ele><time>2026-05-03T17:00:45Z</time></trkpt><trkpt lat="43.027493899247645" lon="12.676475787871556"><ele>544.3333333333334</ele><time>2026-05-03T17:00:46Z</time></trkpt><trkpt lat="43.027451734225444" lon="12.676571355788788"><ele>544.6666666666667</ele><time>2026-05-03T17:00:47Z</time></trkpt><trkpt lat="43.02740511648104" lon="12.676649215973594"><ele>545.0</ele><time>2026-05-03T17:00:48Z</time></trkpt><trkpt lat="43.027351889442016" lon="12.6767119675449"><ele>545.3333333333334</ele><time>2026-05-03T17:00:49Z</time></trkpt><trkpt lat="43.02728761758443" lon="12.676787676468711"><ele>545.6666666666666</ele><time>2026-05-03T17:00:50Z</time></trkpt><trkpt lat="43.027220743741054" lon="12.676870019281223"><ele>546.0</ele><time>2026-05-03T17:00:51Z</time></trkpt><trkpt lat="43.027162605763486" lon="12.676953184162883"><ele>547.3333333333334</ele><time>2026-05-03T17:00:52Z</time></trkpt><trkpt lat="43.027114775914605" lon="12.677050500091935"><ele>548.6666666666666</ele><time>2026-05-03T17:00:53Z</time></trkpt><trkpt lat="43.02707897871187" lon="12.677168985827215"><ele>550.0</ele><time>2026-05-03T17:00:54Z</time></trkpt><trkpt lat="43.02705047145069" lon="12.677253346340905"><ele>551.3333333333333</ele><time>2026-05-03T17:00:55Z</time></trkpt><trkpt lat="43.02700772783754" lon="12.677411161101842"><ele>552.6666666666666</ele><time>2026-05-03T17:00:57Z</time></trkpt><trkpt lat="43.026981427158866" lon="12.677497423153302"><ele>554.0</ele><time>2026-05-03T17:00:58Z</time></trkpt><trkpt lat="43.02696148372678" lon="12.677658055958993"><ele>554.0</ele><time>2026-05-03T17:01:00Z</time></trkpt><trkpt lat="43.02698102301152" lon="12.67775607780151"><ele>554.0</ele><time>2026-05-03T17:01:01Z</time></trkpt><trkpt lat="43.0270155622273" lon="12.67785649835893"><ele>554.0</ele><time>2026-05-03T17:01:02Z</time></trkpt><trkpt lat="43.02704308364643" lon="12.67794491729622"><ele>554.0</ele><time>2026-05-03T17:01:03Z</time></trkpt><trkpt lat="43.02706724325796" lon="12.678025112290637"><ele>554.0</ele><time>2026-05-03T17:01:04Z</time></trkpt><trkpt lat="43.02708393095851" lon="12.678156329503254"><ele>554.0</ele><time>2026-05-03T17:01:06Z</time></trkpt><trkpt lat="43.02701263265544" lon="12.678228745458886"><ele>556.4</ele><time>2026-05-03T17:01:08Z</time></trkpt><trkpt lat="43.02695160993773" lon="12.678197723838096"><ele>558.8</ele><time>2026-05-03T17:01:10Z</time></trkpt><trkpt lat="43.02679073879344" lon="12.678062504167732"><ele>561.2</ele><time>2026-05-03T17:01:36Z</time></trkpt><trkpt lat="43.02671668585229" lon="12.678041068285673"><ele>563.6</ele><time>2026-05-03T17:01:37Z</time></trkpt><trkpt lat="43.026609846453695" lon="12.678024848907201"><ele>566.0</ele><time>2026-05-03T17:01:38.999Z</time></trkpt><trkpt lat="43.026544599867336" lon="12.677980024441522"><ele>569.8</ele><time>2026-05-03T17:01:40.999Z</time></trkpt><trkpt lat="43.02648633298065" lon="12.677876994332253"><ele>573.6</ele><time>2026-05-03T17:01:42.999Z</time></trkpt><trkpt lat="43.026433309254905" lon="12.677798291033206"><ele>577.4</ele><time>2026-05-03T17:01:43.999Z</time></trkpt><trkpt lat="43.02640062485721" lon="12.6776673261126"><ele>581.2</ele><time>2026-05-03T17:01:44.999Z</time></trkpt><trkpt lat="43.026352604011834" lon="12.677543616343446"><ele>585.0</ele><time>2026-05-03T17:01:45.999Z</time></trkpt><trkpt lat="43.02629836550052" lon="12.677410716321583"><ele>585.0</ele><time>2026-05-03T17:01:46.999Z</time></trkpt><trkpt lat="43.02629524070684" lon="12.677273775388716"><ele>585.0</ele><time>2026-05-03T17:01:47.999Z</time></trkpt><trkpt lat="43.026266720330575" lon="12.677168053501239"><ele>585.0</ele><time>2026-05-03T17:01:48.999Z</time></trkpt><trkpt lat="43.02622731129113" lon="12.677079262548565"><ele>585.0</ele><time>2026-05-03T17:01:49.999Z</time></trkpt><trkpt lat="43.026186836349176" lon="12.677000072553378"><ele>585.0</ele><time>2026-05-03T17:01:50.999Z</time></trkpt><trkpt lat="43.02611935524419" lon="12.676948537728844"><ele>585.0</ele><time>2026-05-03T17:01:51.999Z</time></trkpt><trkpt lat="43.02605525085889" lon="12.676894872898984"><ele>586.75</ele><time>2026-05-03T17:01:52.999Z</time></trkpt><trkpt lat="43.02597768538391" lon="12.676812217997929"><ele>588.5</ele><time>2026-05-03T17:01:53.999Z</time></trkpt><trkpt lat="43.02586955392036" lon="12.676730258200454"><ele>590.25</ele><time>2026-05-03T17:01:54.999Z</time></trkpt><trkpt lat="43.02576858334572" lon="12.67663052917274"><ele>592.0</ele><time>2026-05-03T17:01:55.999Z</time></trkpt><trkpt lat="43.0256681967694" lon="12.676544541956009"><ele>592.0</ele><time>2026-05-03T17:01:56.999Z</time></trkpt><trkpt lat="43.02555622229488" lon="12.676441946690918"><ele>592.0</ele><time>2026-05-03T17:01:57.999Z</time></trkpt><trkpt lat="43.025491402968626" lon="12.676349278045352"><ele>592.0</ele><time>2026-05-03T17:01:58.999Z</time></trkpt><trkpt lat="43.025375654633194" lon="12.676272093065243"><ele>592.0</ele><time>2026-05-03T17:01:59.999Z</time></trkpt><trkpt lat="43.025285135849145" lon="12.676208849259577"><ele>592.0</ele><time>2026-05-03T17:02:00.999Z</time></trkpt><trkpt lat="43.02517325219299" lon="12.676111481416113"><ele>592.0</ele><time>2026-05-03T17:02:01.999Z</time></trkpt><trkpt lat="43.02507870116341" lon="12.676015463652178"><ele>592.0</ele><time>2026-05-03T17:02:02.999Z</time></trkpt><trkpt lat="43.02498925935841" lon="12.67587049363575"><ele>592.0</ele><time>2026-05-03T17:02:03.999Z</time></trkpt><trkpt lat="43.02487195958356" lon="12.67579284043866"><ele>591.0</ele><time>2026-05-03T17:02:04.999Z</time></trkpt><trkpt lat="43.024769275431616" lon="12.675741041581027"><ele>590.0</ele><time>2026-05-03T17:02:05.999Z</time></trkpt><trkpt lat="43.02466133557077" lon="12.675683926648773"><ele>589.0</ele><time>2026-05-03T17:02:06.999Z</time></trkpt><trkpt lat="43.02456129368569" lon="12.675635601963261"><ele>588.0</ele><time>2026-05-03T17:02:07.999Z</time></trkpt><trkpt lat="43.02446167849875" lon="12.675550175121828"><ele>587.0</ele><time>2026-05-03T17:02:08.999Z</time></trkpt><trkpt lat="43.02436984194736" lon="12.675441579851622"><ele>587.0</ele><time>2026-05-03T17:02:09.999Z</time></trkpt><trkpt lat="43.02426881238316" lon="12.675348117943804"><ele>587.0</ele><time>2026-05-03T17:02:10.999Z</time></trkpt><trkpt lat="43.02415413311268" lon="12.67525952509024"><ele>587.0</ele><time>2026-05-03T17:02:11.999Z</time></trkpt><trkpt lat="43.02403483583861" lon="12.675181989038387"><ele>587.0</ele><time>2026-05-03T17:02:12.999Z</time></trkpt><trkpt lat="43.023917089935644" lon="12.675097327332706"><ele>590.75</ele><time>2026-05-03T17:02:13.999Z</time></trkpt><trkpt lat="43.02378283935002" lon="12.675000329062973"><ele>594.5</ele><time>2026-05-03T17:02:14.999Z</time></trkpt><trkpt lat="43.02365124064204" lon="12.674920137736324"><ele>598.25</ele><time>2026-05-03T17:02:15.999Z</time></trkpt><trkpt lat="43.02353491014989" lon="12.674840182304187"><ele>602.0</ele><time>2026-05-03T17:02:16.999Z</time></trkpt><trkpt lat="43.02345456203222" lon="12.674751646285756"><ele>602.0</ele><time>2026-05-03T17:02:17.999Z</time></trkpt><trkpt lat="43.023374655379556" lon="12.67466821393002"><ele>602.0</ele><time>2026-05-03T17:02:18.999Z</time></trkpt><trkpt lat="43.02326648948775" lon="12.674588219163608"><ele>602.0</ele><time>2026-05-03T17:02:19.999Z</time></trkpt><trkpt lat="43.02314264086518" lon="12.674493009487227"><ele>602.0</ele><time>2026-05-03T17:02:20.999Z</time></trkpt><trkpt lat="43.02304707123061" lon="12.674402825907407"><ele>605.2</ele><time>2026-05-03T17:02:21.999Z</time></trkpt><trkpt lat="43.022971410240245" lon="12.674315774977337"><ele>608.4000000000001</ele><time>2026-05-03T17:02:22.999Z</time></trkpt><trkpt lat="43.02288574320988" lon="12.674249343697209"><ele>611.5999999999999</ele><time>2026-05-03T17:02:23.999Z</time></trkpt><trkpt lat="43.02282438652621" lon="12.674142317142314"><ele>614.8</ele><time>2026-05-03T17:02:24.999Z</time></trkpt><trkpt lat="43.02278940304847" lon="12.673996202720268"><ele>618.0</ele><time>2026-05-03T17:02:25.999Z</time></trkpt><trkpt lat="43.02276685304934" lon="12.673836564663173"><ele>618.0</ele><time>2026-05-03T17:02:26.999Z</time></trkpt><trkpt lat="43.02270922018273" lon="12.673704072954495"><ele>618.0</ele><time>2026-05-03T17:02:27.999Z</time></trkpt><trkpt lat="43.02266279566897" lon="12.673535982661564"><ele>618.0</ele><time>2026-05-03T17:02:28.999Z</time></trkpt><trkpt lat="43.022619190992465" lon="12.673402163321436"><ele>618.0</ele><time>2026-05-03T17:02:29.999Z</time></trkpt><trkpt lat="43.022584727869464" lon="12.673286677211475"><ele>618.0</ele><time>2026-05-03T17:02:30.999Z</time></trkpt><trkpt lat="43.0225645085967" lon="12.67316944602558"><ele>618.4</ele><time>2026-05-03T17:02:33Z</time></trkpt><trkpt lat="43.022609219828716" lon="12.67303277520089"><ele>618.8</ele><time>2026-05-03T17:02:34Z</time></trkpt><trkpt lat="43.02262023310721" lon="12.672945267898646"><ele>619.2</ele><time>2026-05-03T17:02:35Z</time></trkpt><trkpt lat="43.022577044010134" lon="12.67279924399987"><ele>619.6</ele><time>2026-05-03T17:03:03Z</time></trkpt><trkpt lat="43.02253386236462" lon="12.672712187055991"><ele>620.0</ele><time>2026-05-03T17:03:04Z</time></trkpt><trkpt lat="43.02247921790475" lon="12.672605968140267"><ele>620.0</ele><time>2026-05-03T17:03:05Z</time></trkpt><trkpt lat="43.02242255023326" lon="12.672516903092863"><ele>620.0</ele><time>2026-05-03T17:03:06Z</time></trkpt><trkpt lat="43.02237079492178" lon="12.672447477649866"><ele>620.0</ele><time>2026-05-03T17:03:07Z</time></trkpt><trkpt lat="43.02231659011733" lon="12.672338339682446"><ele>620.0</ele><time>2026-05-03T17:03:08Z</time></trkpt><trkpt lat="43.022256418830125" lon="12.672234721566864"><ele>620.0</ele><time>2026-05-03T17:03:09Z</time></trkpt><trkpt lat="43.02219389052052" lon="12.672147104696544"><ele>620.0</ele><time>2026-05-03T17:03:10Z</time></trkpt><trkpt lat="43.022139701301214" lon="12.672096748911326"><ele>620.0</ele><time>2026-05-03T17:03:11Z</time></trkpt><trkpt lat="43.02202814195786" lon="12.672115265003136"><ele>620.0</ele><time>2026-05-03T17:03:13Z</time></trkpt><trkpt lat="43.02198091470702" lon="12.672178568987867"><ele>620.0</ele><time>2026-05-03T17:03:14Z</time></trkpt><trkpt lat="43.021908289407584" lon="12.672262321398005"><ele>620.0</ele><time>2026-05-03T17:03:15Z</time></trkpt><trkpt lat="43.02182899676114" lon="12.672342292640412"><ele>620.0</ele><time>2026-05-03T17:03:16Z</time></trkpt><trkpt lat="43.02176095327448" lon="12.672419235189805"><ele>620.0</ele><time>2026-05-03T17:03:17Z</time></trkpt><trkpt lat="43.02168943957666" lon="12.672482411570071"><ele>620.0</ele><time>2026-05-03T17:03:18Z</time></trkpt><trkpt lat="43.02160855671208" lon="12.672554735870913"><ele>620.0</ele><time>2026-05-03T17:03:20Z</time></trkpt><trkpt lat="43.0214971077986" lon="12.6725534662532"><ele>620.0</ele><time>2026-05-03T17:03:23Z</time></trkpt><trkpt lat="43.021419596099804" lon="12.672503701634383"><ele>620.0</ele><time>2026-05-03T17:03:24Z</time></trkpt><trkpt lat="43.021350958848934" lon="12.672410203140553"><ele>621.0</ele><time>2026-05-03T17:03:25Z</time></trkpt><trkpt lat="43.02128992721151" lon="12.672365578346557"><ele>622.0</ele><time>2026-05-03T17:03:26Z</time></trkpt><trkpt lat="43.02122412026402" lon="12.672312273245813"><ele>623.0</ele><time>2026-05-03T17:03:27Z</time></trkpt><trkpt lat="43.021154821847304" lon="12.672251907962908"><ele>624.0</ele><time>2026-05-03T17:03:28Z</time></trkpt><trkpt lat="43.02108143926497" lon="12.67221409926627"><ele>625.0</ele><time>2026-05-03T17:03:29Z</time></trkpt><trkpt lat="43.02100626534561" lon="12.672147782827354"><ele>626.0</ele><time>2026-05-03T17:03:30Z</time></trkpt><trkpt lat="43.020947576535775" lon="12.672064991729934"><ele>626.0</ele><time>2026-05-03T17:03:31Z</time></trkpt><trkpt lat="43.02088592814483" lon="12.67196985769451"><ele>626.0</ele><time>2026-05-03T17:03:32Z</time></trkpt><trkpt lat="43.02079677601511" lon="12.671882141705744"><ele>626.0</ele><time>2026-05-03T17:03:33Z</time></trkpt><trkpt lat="43.02071073478898" lon="12.671793096764475"><ele>626.0</ele><time>2026-05-03T17:03:34Z</time></trkpt><trkpt lat="43.02062437655162" lon="12.671709239502635"><ele>626.0</ele><time>2026-05-03T17:03:35Z</time></trkpt><trkpt lat="43.02051405903529" lon="12.671601065533547"><ele>625.25</ele><time>2026-05-03T17:03:36Z</time></trkpt><trkpt lat="43.02040636771767" lon="12.671493470373626"><ele>624.5</ele><time>2026-05-03T17:03:37Z</time></trkpt><trkpt lat="43.02030368684192" lon="12.671409198275864"><ele>623.75</ele><time>2026-05-03T17:03:38Z</time></trkpt><trkpt lat="43.02020982267593" lon="12.67133165962083"><ele>623.0</ele><time>2026-05-03T17:03:39Z</time></trkpt><trkpt lat="43.02011066380539" lon="12.67126290178472"><ele>623.0</ele><time>2026-05-03T17:03:39.999Z</time></trkpt><trkpt lat="43.02002755850252" lon="12.671190093554054"><ele>623.0</ele><time>2026-05-03T17:03:40.999Z</time></trkpt><trkpt lat="43.019958402780496" lon="12.6710867140154"><ele>623.0</ele><time>2026-05-03T17:03:41.999Z</time></trkpt><trkpt lat="43.01991119623675" lon="12.670976470914793"><ele>623.0</ele><time>2026-05-03T17:03:42.999Z</time></trkpt><trkpt lat="43.01986817655076" lon="12.670847376003612"><ele>623.0</ele><time>2026-05-03T17:03:44.999Z</time></trkpt><trkpt lat="43.01989165129281" lon="12.670679700147042"><ele>622.5</ele><time>2026-05-03T17:03:46.999Z</time></trkpt><trkpt lat="43.01989120729636" lon="12.67053893480524"><ele>622.0</ele><time>2026-05-03T17:03:48.999Z</time></trkpt><trkpt lat="43.01984974887046" lon="12.670452817226835"><ele>621.5</ele><time>2026-05-03T17:03:49.999Z</time></trkpt><trkpt lat="43.019794635768086" lon="12.670376339799182"><ele>621.0</ele><time>2026-05-03T17:03:50.999Z</time></trkpt><trkpt lat="43.019745889212025" lon="12.670305068004861"><ele>620.5</ele><time>2026-05-03T17:03:51.999Z</time></trkpt><trkpt lat="43.01965992742668" lon="12.670203955378257"><ele>620.0</ele><time>2026-05-03T17:03:53.999Z</time></trkpt><trkpt lat="43.019602693458864" lon="12.670107109215136"><ele>618.5</ele><time>2026-05-03T17:03:55.999Z</time></trkpt><trkpt lat="43.01957301526248" lon="12.670023151305212"><ele>617.0</ele><time>2026-05-03T17:03:57.999Z</time></trkpt><trkpt lat="43.019565118052725" lon="12.669925460560197"><ele>615.5</ele><time>2026-05-03T17:04:00.999Z</time></trkpt><trkpt lat="43.01956721181848" lon="12.669833415251158"><ele>614.0</ele><time>2026-05-03T17:04:02.999Z</time></trkpt><trkpt lat="43.01955981748496" lon="12.669724468388678"><ele>612.5</ele><time>2026-05-03T17:04:06.999Z</time></trkpt><trkpt lat="43.01953585262765" lon="12.66954704013452"><ele>611.0</ele><time>2026-05-03T17:04:08.999Z</time></trkpt><trkpt lat="43.0195182300349" lon="12.669448019645824"><ele>608.8</ele><time>2026-05-03T17:04:09.999Z</time></trkpt><trkpt lat="43.01949882277081" lon="12.669353867850605"><ele>606.6</ele><time>2026-05-03T17:04:10.999Z</time></trkpt><trkpt lat="43.019477810074484" lon="12.669264198489971"><ele>604.4</ele><time>2026-05-03T17:04:11.999Z</time></trkpt><trkpt lat="43.01940443456514" lon="12.669115733342144"><ele>602.2</ele><time>2026-05-03T17:04:13.999Z</time></trkpt><trkpt lat="43.01931238709565" lon="12.669064157631372"><ele>600.0</ele><time>2026-05-03T17:04:14.999Z</time></trkpt><trkpt lat="43.01923785788405" lon="12.668989404371347"><ele>600.0</ele><time>2026-05-03T17:04:15.999Z</time></trkpt><trkpt lat="43.019160955764114" lon="12.668911837719682"><ele>600.0</ele><time>2026-05-03T17:04:16.999Z</time></trkpt><trkpt lat="43.01907165909935" lon="12.66885947797268"><ele>600.0</ele><time>2026-05-03T17:04:17.999Z</time></trkpt><trkpt lat="43.018982435664746" lon="12.668798150378672"><ele>600.0</ele><time>2026-05-03T17:04:18.999Z</time></trkpt><trkpt lat="43.01888573137841" lon="12.66873758110209"><ele>600.0</ele><time>2026-05-03T17:04:19.999Z</time></trkpt><trkpt lat="43.01881843931903" lon="12.668649760320557"><ele>597.2</ele><time>2026-05-03T17:04:20.999Z</time></trkpt><trkpt lat="43.018760612665794" lon="12.668573215928102"><ele>594.4</ele><time>2026-05-03T17:04:21.999Z</time></trkpt><trkpt lat="43.018690942476766" lon="12.66848472941215"><ele>591.6</ele><time>2026-05-03T17:04:22.999Z</time></trkpt><trkpt lat="43.0186108199581" lon="12.668387345511004"><ele>588.8</ele><time>2026-05-03T17:04:23.999Z</time></trkpt><trkpt lat="43.01852343439487" lon="12.668295476216192"><ele>586.0</ele><time>2026-05-03T17:04:24.999Z</time></trkpt><trkpt lat="43.01844880009917" lon="12.668190517758747"><ele>586.0</ele><time>2026-05-03T17:04:25.999Z</time></trkpt><trkpt lat="43.01838951659033" lon="12.66810299603069"><ele>586.0</ele><time>2026-05-03T17:04:26.999Z</time></trkpt><trkpt lat="43.01832974717182" lon="12.668016868621658"><ele>586.0</ele><time>2026-05-03T17:04:27.999Z</time></trkpt><trkpt lat="43.01827260281944" lon="12.667929964768847"><ele>586.0</ele><time>2026-05-03T17:04:28.999Z</time></trkpt><trkpt lat="43.01820737440193" lon="12.667856952920676"><ele>586.0</ele><time>2026-05-03T17:04:29.999Z</time></trkpt><trkpt lat="43.018128707442976" lon="12.667800179546386"><ele>586.0</ele><time>2026-05-03T17:04:30.999Z</time></trkpt><trkpt lat="43.01803419909397" lon="12.667725222825837"><ele>582.6</ele><time>2026-05-03T17:04:31.999Z</time></trkpt><trkpt lat="43.01792812152045" lon="12.667684993448804"><ele>579.2</ele><time>2026-05-03T17:04:32.999Z</time></trkpt><trkpt lat="43.0178239731966" lon="12.667638459568053"><ele>575.8</ele><time>2026-05-03T17:04:33.999Z</time></trkpt><trkpt lat="43.0177301539167" lon="12.667589949229423"><ele>572.4</ele><time>2026-05-03T17:04:34.999Z</time></trkpt><trkpt lat="43.01764693482816" lon="12.667520702539584"><ele>569.0</ele><time>2026-05-03T17:04:35.999Z</time></trkpt><trkpt lat="43.01755922540775" lon="12.667474566004199"><ele>569.2</ele><time>2026-05-03T17:04:36.999Z</time></trkpt><trkpt lat="43.01746246326647" lon="12.667426056700615"><ele>569.4</ele><time>2026-05-03T17:04:38Z</time></trkpt><trkpt lat="43.01736458012504" lon="12.667398978909706"><ele>569.6</ele><time>2026-05-03T17:04:39Z</time></trkpt><trkpt lat="43.017267805649475" lon="12.667354868704287"><ele>569.8</ele><time>2026-05-03T17:04:40Z</time></trkpt><trkpt lat="43.017176767316414" lon="12.66728777290657"><ele>570.0</ele><time>2026-05-03T17:04:41Z</time></trkpt><trkpt lat="43.01706845210959" lon="12.66723609143154"><ele>570.0</ele><time>2026-05-03T17:04:42Z</time></trkpt><trkpt lat="43.01695006960857" lon="12.667179343213464"><ele>570.0</ele><time>2026-05-03T17:04:43Z</time></trkpt><trkpt lat="43.01683412955427" lon="12.667122081333106"><ele>570.0</ele><time>2026-05-03T17:04:44Z</time></trkpt><trkpt lat="43.0167226887629" lon="12.667066412805918"><ele>570.0</ele><time>2026-05-03T17:04:45Z</time></trkpt><trkpt lat="43.01661398640355" lon="12.667018412891796"><ele>569.0</ele><time>2026-05-03T17:04:46Z</time></trkpt><trkpt lat="43.01650188162205" lon="12.666979789756413"><ele>568.0</ele><time>2026-05-03T17:04:47Z</time></trkpt><trkpt lat="43.01641501330342" lon="12.666960059514263"><ele>567.0</ele><time>2026-05-03T17:04:48Z</time></trkpt><trkpt lat="43.01630949910272" lon="12.666949151008444"><ele>566.0</ele><time>2026-05-03T17:04:49Z</time></trkpt><trkpt lat="43.016198949605005" lon="12.666925318714213"><ele>565.0</ele><time>2026-05-03T17:04:50Z</time></trkpt><trkpt lat="43.016089013360286" lon="12.666919474532028"><ele>565.0</ele><time>2026-05-03T17:04:51Z</time></trkpt><trkpt lat="43.01596842661059" lon="12.666940337625977"><ele>565.0</ele><time>2026-05-03T17:04:52Z</time></trkpt><trkpt lat="43.015859934661435" lon="12.66697025873733"><ele>565.0</ele><time>2026-05-03T17:04:53Z</time></trkpt><trkpt lat="43.01576634023303" lon="12.666995260078103"><ele>565.0</ele><time>2026-05-03T17:04:54Z</time></trkpt><trkpt lat="43.01566304546229" lon="12.667006568639584"><ele>565.0</ele><time>2026-05-03T17:04:55Z</time></trkpt><trkpt lat="43.015582900170685" lon="12.667008812304749"><ele>561.8</ele><time>2026-05-03T17:04:56Z</time></trkpt><trkpt lat="43.015440373613586" lon="12.666957785009167"><ele>558.6</ele><time>2026-05-03T17:04:58Z</time></trkpt><trkpt lat="43.0153772570655" lon="12.666894426062399"><ele>555.4</ele><time>2026-05-03T17:04:59Z</time></trkpt><trkpt lat="43.01528788694417" lon="12.666831247904637"><ele>552.2</ele><time>2026-05-03T17:05:00Z</time></trkpt><trkpt lat="43.01521076551016" lon="12.666738066590623"><ele>549.0</ele><time>2026-05-03T17:05:01Z</time></trkpt><trkpt lat="43.01512210027927" lon="12.666666358341773"><ele>548.2</ele><time>2026-05-03T17:05:02Z</time></trkpt><trkpt lat="43.01501419622071" lon="12.666641294833454"><ele>547.4</ele><time>2026-05-03T17:05:03Z</time></trkpt><trkpt lat="43.01491520905025" lon="12.666601650593654"><ele>546.6</ele><time>2026-05-03T17:05:04Z</time></trkpt><trkpt lat="43.01482740012464" lon="12.666583080236764"><ele>545.8</ele><time>2026-05-03T17:05:05Z</time></trkpt><trkpt lat="43.01475672901344" lon="12.666541738933834"><ele>545.0</ele><time>2026-05-03T17:05:06Z</time></trkpt><trkpt lat="43.01467356831095" lon="12.666526657117904"><ele>542.0</ele><time>2026-05-03T17:05:07Z</time></trkpt><trkpt lat="43.014599547559044" lon="12.666520131605802"><ele>539.0</ele><time>2026-05-03T17:05:08Z</time></trkpt><trkpt lat="43.01451635365405" lon="12.66648834373483"><ele>536.0</ele><time>2026-05-03T17:05:09Z</time></trkpt><trkpt lat="43.01444240593722" lon="12.666501052230224"><ele>533.0</ele><time>2026-05-03T17:05:10Z</time></trkpt><trkpt lat="43.0143578710342" lon="12.666486447152979"><ele>530.0</ele><time>2026-05-03T17:05:11Z</time></trkpt><trkpt lat="43.014269355151505" lon="12.66651015267144"><ele>527.0</ele><time>2026-05-03T17:05:12Z</time></trkpt><trkpt lat="43.01419153719524" lon="12.666559808080917"><ele>519.0</ele><time>2026-05-03T17:05:13Z</time></trkpt><trkpt lat="43.01411152007474" lon="12.666648306554082"><ele>511.00000000000006</ele><time>2026-05-03T17:05:14Z</time></trkpt><trkpt lat="43.01405028171367" lon="12.666749872825555"><ele>503.00000000000006</ele><time>2026-05-03T17:05:15Z</time></trkpt><trkpt lat="43.014013045277785" lon="12.666863752500682"><ele>495.0</ele><time>2026-05-03T17:05:16Z</time></trkpt><trkpt lat="43.013984413808274" lon="12.666981696203932"><ele>487.0</ele><time>2026-05-03T17:05:17Z</time></trkpt><trkpt lat="43.013960494083776" lon="12.667107698546193"><ele>487.0</ele><time>2026-05-03T17:05:18Z</time></trkpt><trkpt lat="43.01395298490008" lon="12.667269452859049"><ele>487.00000000000006</ele><time>2026-05-03T17:05:19Z</time></trkpt><trkpt lat="43.01395913158493" lon="12.667412766151775"><ele>487.00000000000006</ele><time>2026-05-03T17:05:20Z</time></trkpt><trkpt lat="43.013949973051396" lon="12.667539442558173"><ele>487.0</ele><time>2026-05-03T17:05:21Z</time></trkpt><trkpt lat="43.01392082600802" lon="12.667658880679557"><ele>487.0</ele><time>2026-05-03T17:05:22Z</time></trkpt><trkpt lat="43.01389047216172" lon="12.667803009005436"><ele>487.25</ele><time>2026-05-03T17:05:23Z</time></trkpt><trkpt lat="43.01387253304195" lon="12.667958229011205"><ele>487.5</ele><time>2026-05-03T17:05:24Z</time></trkpt><trkpt lat="43.01383807253172" lon="12.668095035749323"><ele>487.75</ele><time>2026-05-03T17:05:25Z</time></trkpt><trkpt lat="43.01378921476046" lon="12.668241144033878"><ele>488.0</ele><time>2026-05-03T17:05:26Z</time></trkpt><trkpt lat="43.01373796269758" lon="12.668401340171531"><ele>488.0</ele><time>2026-05-03T17:05:27Z</time></trkpt><trkpt lat="43.01369406917962" lon="12.668556193585633"><ele>487.99999999999994</ele><time>2026-05-03T17:05:28Z</time></trkpt><trkpt lat="43.0136555629703" lon="12.668691369796663"><ele>487.99999999999994</ele><time>2026-05-03T17:05:29Z</time></trkpt><trkpt lat="43.01361388210242" lon="12.66882966027388"><ele>488.0</ele><time>2026-05-03T17:05:30Z</time></trkpt><trkpt lat="43.01357157543317" lon="12.668969690483362"><ele>488.0</ele><time>2026-05-03T17:05:31Z</time></trkpt><trkpt lat="43.01352908486739" lon="12.6691101830543"><ele>489.4</ele><time>2026-05-03T17:05:32Z</time></trkpt><trkpt lat="43.01348790835612" lon="12.669246330875982"><ele>490.79999999999995</ele><time>2026-05-03T17:05:33Z</time></trkpt><trkpt lat="43.01344885029727" lon="12.669375474140654"><ele>492.2</ele><time>2026-05-03T17:05:34Z</time></trkpt><trkpt lat="43.0134105835651" lon="12.669502657868925"><ele>493.6</ele><time>2026-05-03T17:05:35Z</time></trkpt><trkpt lat="43.013371307999286" lon="12.669634670115334"><ele>495.0</ele><time>2026-05-03T17:05:35.999Z</time></trkpt><trkpt lat="43.01333376425423" lon="12.669760861336608"><ele>496.6</ele><time>2026-05-03T17:05:36.999Z</time></trkpt><trkpt lat="43.01329374440777" lon="12.669895375267329"><ele>498.2</ele><time>2026-05-03T17:05:37.999Z</time></trkpt><trkpt lat="43.01325550790674" lon="12.670022699621141"><ele>499.79999999999995</ele><time>2026-05-03T17:05:38.999Z</time></trkpt><trkpt lat="43.0132145917503" lon="12.67013974070831"><ele>501.4</ele><time>2026-05-03T17:05:39.999Z</time></trkpt><trkpt lat="43.01317037382814" lon="12.67024843920367"><ele>503.0</ele><time>2026-05-03T17:05:40.999Z</time></trkpt><trkpt lat="43.013116080754735" lon="12.670355058678886"><ele>503.0</ele><time>2026-05-03T17:05:41.999Z</time></trkpt><trkpt lat="43.01306427980638" lon="12.670459325770517"><ele>502.99999999999994</ele><time>2026-05-03T17:05:42.999Z</time></trkpt><trkpt lat="43.013011035475834" lon="12.670562491336526"><ele>502.99999999999994</ele><time>2026-05-03T17:05:43.999Z</time></trkpt><trkpt lat="43.01295569905137" lon="12.670659068733745"><ele>503.0</ele><time>2026-05-03T17:05:44.999Z</time></trkpt><trkpt lat="43.01289274298766" lon="12.670750315423394"><ele>503.0</ele><time>2026-05-03T17:05:45.999Z</time></trkpt><trkpt lat="43.01282592584236" lon="12.670825832542736"><ele>502.99999999999994</ele><time>2026-05-03T17:05:46.999Z</time></trkpt><trkpt lat="43.01276139125669" lon="12.670889661307218"><ele>503.0</ele><time>2026-05-03T17:05:47.999Z</time></trkpt><trkpt lat="43.012680211394894" lon="12.670912784635291"><ele>503.0</ele><time>2026-05-03T17:05:48.999Z</time></trkpt><trkpt lat="43.01261429047703" lon="12.670917327225334"><ele>503.0</ele><time>2026-05-03T17:05:49.999Z</time></trkpt><trkpt lat="43.01251777121793" lon="12.670879640620191"><ele>502.99999999999994</ele><time>2026-05-03T17:05:51.999Z</time></trkpt><trkpt lat="43.01245073821981" lon="12.670851821412274"><ele>503.0</ele><time>2026-05-03T17:05:53.999Z</time></trkpt><trkpt lat="43.01238596009052" lon="12.670818462919513"><ele>504.3333333333333</ele><time>2026-05-03T17:05:55.999Z</time></trkpt><trkpt lat="43.01231881141504" lon="12.670765446510181"><ele>505.66666666666663</ele><time>2026-05-03T17:05:57.999Z</time></trkpt><trkpt lat="43.012238714134824" lon="12.67071255011737"><ele>507.0</ele><time>2026-05-03T17:06:00.999Z</time></trkpt><trkpt lat="43.012173135043334" lon="12.670634107603425"><ele>508.33333333333337</ele><time>2026-05-03T17:06:36.999Z</time></trkpt><trkpt lat="43.0121058587282" lon="12.67057498736433"><ele>509.6666666666667</ele><time>2026-05-03T17:06:37.999Z</time></trkpt><trkpt lat="43.01203871765705" lon="12.67049358894716"><ele>511.0</ele><time>2026-05-03T17:06:38.999Z</time></trkpt><trkpt lat="43.011953760267595" lon="12.670404438107054"><ele>511.0</ele><time>2026-05-03T17:06:39.999Z</time></trkpt><trkpt lat="43.01187105967032" lon="12.67032217226933"><ele>511.0</ele><time>2026-05-03T17:06:40.999Z</time></trkpt><trkpt lat="43.011770809420376" lon="12.670233418453934"><ele>511.0</ele><time>2026-05-03T17:06:41.999Z</time></trkpt><trkpt lat="43.01167557047301" lon="12.670158912820558"><ele>511.0</ele><time>2026-05-03T17:06:42.999Z</time></trkpt><trkpt lat="43.0115856888742" lon="12.670080644334245"><ele>511.0</ele><time>2026-05-03T17:06:44Z</time></trkpt><trkpt lat="43.01150245359502" lon="12.670016404752449"><ele>508.33333333333337</ele><time>2026-05-03T17:06:45Z</time></trkpt><trkpt lat="43.01142538105798" lon="12.669971321872534"><ele>505.6666666666667</ele><time>2026-05-03T17:06:46Z</time></trkpt><trkpt lat="43.01134746179044" lon="12.669935388604188"><ele>503.0</ele><time>2026-05-03T17:06:47Z</time></trkpt><trkpt lat="43.01127195047788" lon="12.669890516004614"><ele>500.33333333333337</ele><time>2026-05-03T17:06:48Z</time></trkpt><trkpt lat="43.01118422054145" lon="12.669849421676645"><ele>497.6666666666667</ele><time>2026-05-03T17:06:49Z</time></trkpt><trkpt lat="43.01110233273495" lon="12.669817846591116"><ele>495.0</ele><time>2026-05-03T17:06:50Z</time></trkpt><trkpt lat="43.01102863706555" lon="12.669794419277888"><ele>495.0</ele><time>2026-05-03T17:06:51Z</time></trkpt><trkpt lat="43.01093659845195" lon="12.669779304295796"><ele>495.0</ele><time>2026-05-03T17:06:53Z</time></trkpt><trkpt lat="43.01086972337237" lon="12.669759994463348"><ele>495.0</ele><time>2026-05-03T17:06:55Z</time></trkpt><trkpt lat="43.010806136176434" lon="12.669795251515627"><ele>495.0</ele><time>2026-05-03T17:07:27Z</time></trkpt><trkpt lat="43.01072588220777" lon="12.669806010467859"><ele>495.0</ele><time>2026-05-03T17:07:29Z</time></trkpt><trkpt lat="43.01060019657327" lon="12.669829809728032"><ele>495.0</ele><time>2026-05-03T17:07:31Z</time></trkpt><trkpt lat="43.010534712150054" lon="12.669817367946713"><ele>493.3333333333333</ele><time>2026-05-03T17:07:32Z</time></trkpt><trkpt lat="43.01046913065206" lon="12.669834351763527"><ele>491.66666666666663</ele><time>2026-05-03T17:07:33Z</time></trkpt><trkpt lat="43.01039844247785" lon="12.669861726276995"><ele>490.0</ele><time>2026-05-03T17:07:34Z</time></trkpt><trkpt lat="43.01032919024882" lon="12.669892602354697"><ele>488.3333333333333</ele><time>2026-05-03T17:07:35Z</time></trkpt><trkpt lat="43.01025259297122" lon="12.669927631955494"><ele>486.66666666666663</ele><time>2026-05-03T17:07:36Z</time></trkpt><trkpt lat="43.010169576451865" lon="12.669964133040466"><ele>485.0</ele><time>2026-05-03T17:07:37Z</time></trkpt><trkpt lat="43.01008350443789" lon="12.669984794325666"><ele>480.25</ele><time>2026-05-03T17:07:38Z</time></trkpt><trkpt lat="43.00997858288026" lon="12.669978961801135"><ele>475.5</ele><time>2026-05-03T17:07:39Z</time></trkpt><trkpt lat="43.00987061745961" lon="12.670012831109597"><ele>470.75</ele><time>2026-05-03T17:07:40Z</time></trkpt><trkpt lat="43.00976267561253" lon="12.67008095857772"><ele>466.0</ele><time>2026-05-03T17:07:41Z</time></trkpt><trkpt lat="43.00965916532347" lon="12.670169382980255"><ele>468.0</ele><time>2026-05-03T17:07:42Z</time></trkpt><trkpt lat="43.009557312800304" lon="12.670276173512223"><ele>470.0</ele><time>2026-05-03T17:07:43Z</time></trkpt><trkpt lat="43.00947033315984" lon="12.670387825626182"><ele>472.0</ele><time>2026-05-03T17:07:44Z</time></trkpt><trkpt lat="43.00938161124567" lon="12.670484079650667"><ele>474.0</ele><time>2026-05-03T17:07:45Z</time></trkpt><trkpt lat="43.009290854180385" lon="12.670555994696613"><ele>474.0</ele><time>2026-05-03T17:07:46Z</time></trkpt><trkpt lat="43.00919854090926" lon="12.670619588603152"><ele>474.0</ele><time>2026-05-03T17:07:47Z</time></trkpt><trkpt lat="43.00911472778866" lon="12.670670977459498"><ele>474.0</ele><time>2026-05-03T17:07:47.999Z</time></trkpt><trkpt lat="43.009031306166925" lon="12.670700466775308"><ele>474.0</ele><time>2026-05-03T17:07:48.999Z</time></trkpt><trkpt lat="43.008937986072844" lon="12.670658009227594"><ele>474.0</ele><time>2026-05-03T17:07:49.999Z</time></trkpt><trkpt lat="43.00883772186325" lon="12.67066024481794"><ele>469.79999999999995</ele><time>2026-05-03T17:07:50.999Z</time></trkpt><trkpt lat="43.00874653381384" lon="12.670677999078507"><ele>465.59999999999997</ele><time>2026-05-03T17:07:51.999Z</time></trkpt><trkpt lat="43.00865824897836" lon="12.670745044844917"><ele>461.4</ele><time>2026-05-03T17:07:52.999Z</time></trkpt><trkpt lat="43.00856835126895" lon="12.670829029125052"><ele>457.2</ele><time>2026-05-03T17:07:53.999Z</time></trkpt><trkpt lat="43.00847608783527" lon="12.670899097557934"><ele>453.0</ele><time>2026-05-03T17:07:54.999Z</time></trkpt><trkpt lat="43.00837585903958" lon="12.670970965152422"><ele>455.5</ele><time>2026-05-03T17:07:55.999Z</time></trkpt><trkpt lat="43.008273716638996" lon="12.671034563332267"><ele>458.0</ele><time>2026-05-03T17:07:56.999Z</time></trkpt><trkpt lat="43.00816666367068" lon="12.671084267839035"><ele>460.5</ele><time>2026-05-03T17:07:57.999Z</time></trkpt><trkpt lat="43.008053012709354" lon="12.671108523280497"><ele>463.0</ele><time>2026-05-03T17:07:58.999Z</time></trkpt><trkpt lat="43.00793537875774" lon="12.671095547258933"><ele>460.25</ele><time>2026-05-03T17:07:59.999Z</time></trkpt><trkpt lat="43.0078058410129" lon="12.671073737812948"><ele>457.5</ele><time>2026-05-03T17:08:00.999Z</time></trkpt><trkpt lat="43.00767810435618" lon="12.671076720970145"><ele>454.75</ele><time>2026-05-03T17:08:01.999Z</time></trkpt><trkpt lat="43.00755488187725" lon="12.671073737341809"><ele>452.0</ele><time>2026-05-03T17:08:02.999Z</time></trkpt><trkpt lat="43.007438458539504" lon="12.671037455391922"><ele>452.0</ele><time>2026-05-03T17:08:03.999Z</time></trkpt><trkpt lat="43.00734013258843" lon="12.67098851474544"><ele>452.00000000000006</ele><time>2026-05-03T17:08:04.999Z</time></trkpt><trkpt lat="43.00724264659347" lon="12.670914912458887"><ele>452.00000000000006</ele><time>2026-05-03T17:08:05.999Z</time></trkpt><trkpt lat="43.00714886485526" lon="12.670861628380885"><ele>452.0</ele><time>2026-05-03T17:08:06.999Z</time></trkpt><trkpt lat="43.00707087152695" lon="12.670774231965735"><ele>452.0</ele><time>2026-05-03T17:08:07.999Z</time></trkpt><trkpt lat="43.00700275550175" lon="12.670657002138451"><ele>452.0</ele><time>2026-05-03T17:08:08.999Z</time></trkpt><trkpt lat="43.006934067352795" lon="12.670537609930296"><ele>452.0</ele><time>2026-05-03T17:08:09.999Z</time></trkpt><trkpt lat="43.00686374757941" lon="12.670418662691842"><ele>452.0</ele><time>2026-05-03T17:08:10.999Z</time></trkpt><trkpt lat="43.006783620529944" lon="12.670294160435157"><ele>452.0</ele><time>2026-05-03T17:08:11.999Z</time></trkpt><trkpt lat="43.00669891020604" lon="12.67017368598323"><ele>449.75</ele><time>2026-05-03T17:08:12.999Z</time></trkpt><trkpt lat="43.006608789400126" lon="12.670055186376162"><ele>447.5</ele><time>2026-05-03T17:08:13.999Z</time></trkpt><trkpt lat="43.00652859933255" lon="12.669953934123429"><ele>445.25</ele><time>2026-05-03T17:08:14.999Z</time></trkpt><trkpt lat="43.00644443950458" lon="12.669857974630856"><ele>443.0</ele><time>2026-05-03T17:08:15.999Z</time></trkpt><trkpt lat="43.006371778648244" lon="12.669742795624769"><ele>443.0</ele><time>2026-05-03T17:08:16.999Z</time></trkpt><trkpt lat="43.006284919948534" lon="12.669653613911375"><ele>442.99999999999994</ele><time>2026-05-03T17:08:17.999Z</time></trkpt><trkpt lat="43.00623554409011" lon="12.669526450009107"><ele>442.99999999999994</ele><time>2026-05-03T17:08:18.999Z</time></trkpt><trkpt lat="43.00616298479769" lon="12.669416144236507"><ele>443.0</ele><time>2026-05-03T17:08:19.999Z</time></trkpt><trkpt lat="43.006099573794394" lon="12.669290919191717"><ele>443.0</ele><time>2026-05-03T17:08:20.999Z</time></trkpt><trkpt lat="43.006020733903625" lon="12.669182255254423"><ele>439.2</ele><time>2026-05-03T17:08:21.999Z</time></trkpt><trkpt lat="43.00592772550287" lon="12.669096509004897"><ele>435.4</ele><time>2026-05-03T17:08:22.999Z</time></trkpt><trkpt lat="43.005835526806166" lon="12.669016371060977"><ele>431.59999999999997</ele><time>2026-05-03T17:08:23.999Z</time></trkpt><trkpt lat="43.005734733526005" lon="12.668937344960634"><ele>427.79999999999995</ele><time>2026-05-03T17:08:24.999Z</time></trkpt><trkpt lat="43.00564285263351" lon="12.668871659740407"><ele>424.0</ele><time>2026-05-03T17:08:25.999Z</time></trkpt><trkpt lat="43.005574205089445" lon="12.668829527824716"><ele>424.00000000000006</ele><time>2026-05-03T17:08:26.999Z</time></trkpt><trkpt lat="43.00550729439067" lon="12.668810556332318"><ele>424.0</ele><time>2026-05-03T17:08:27.999Z</time></trkpt><trkpt lat="43.005422706563145" lon="12.668804572633166"><ele>424.0</ele><time>2026-05-03T17:08:28.999Z</time></trkpt><trkpt lat="43.00534637544781" lon="12.668775557800702"><ele>424.0</ele><time>2026-05-03T17:08:29.999Z</time></trkpt><trkpt lat="43.00527466140072" lon="12.668763895379817"><ele>424.00000000000006</ele><time>2026-05-03T17:08:30.999Z</time></trkpt><trkpt lat="43.00516824040909" lon="12.668764108054836"><ele>424.0</ele><time>2026-05-03T17:08:32.999Z</time></trkpt><trkpt lat="43.00508617433693" lon="12.668725696645984"><ele>424.0</ele><time>2026-05-03T17:08:34.999Z</time></trkpt><trkpt lat="43.004999312993014" lon="12.668701432180528"><ele>424.0</ele><time>2026-05-03T17:08:36.999Z</time></trkpt><trkpt lat="43.004910933080254" lon="12.668676212367034"><ele>424.0</ele><time>2026-05-03T17:08:38.999Z</time></trkpt><trkpt lat="43.00479843685216" lon="12.668650640122"><ele>424.0</ele><time>2026-05-03T17:08:40.999Z</time></trkpt><trkpt lat="43.00467280423798" lon="12.668622131179996"><ele>424.0</ele><time>2026-05-03T17:08:42.999Z</time></trkpt><trkpt lat="43.004601634921855" lon="12.668608135933761"><ele>422.50000000000006</ele><time>2026-05-03T17:08:43.999Z</time></trkpt><trkpt lat="43.00453038059264" lon="12.668601948461086"><ele>421.0</ele><time>2026-05-03T17:08:44.999Z</time></trkpt><trkpt lat="43.00445147966411" lon="12.668600510778836"><ele>419.5</ele><time>2026-05-03T17:08:45.999Z</time></trkpt><trkpt lat="43.00437405842354" lon="12.66860392673861"><ele>418.0</ele><time>2026-05-03T17:08:46.999Z</time></trkpt><trkpt lat="43.00429201358992" lon="12.668612056101736"><ele>416.50000000000006</ele><time>2026-05-03T17:08:47.999Z</time></trkpt><trkpt lat="43.00421179797058" lon="12.668622421046397"><ele>415.0</ele><time>2026-05-03T17:08:48.999Z</time></trkpt><trkpt lat="43.00412611454812" lon="12.668638723843163"><ele>413.0</ele><time>2026-05-03T17:08:50Z</time></trkpt><trkpt lat="43.00404194583778" lon="12.668655273068703"><ele>411.0</ele><time>2026-05-03T17:08:51Z</time></trkpt><trkpt lat="43.00395734898264" lon="12.668668260987298"><ele>409.0</ele><time>2026-05-03T17:08:52Z</time></trkpt><trkpt lat="43.00386660263947" lon="12.668676618915537"><ele>407.0</ele><time>2026-05-03T17:08:53Z</time></trkpt><trkpt lat="43.00377359037874" lon="12.668706599547441"><ele>405.0</ele><time>2026-05-03T17:08:54Z</time></trkpt><trkpt lat="43.00367760931688" lon="12.668714951239973"><ele>405.0</ele><time>2026-05-03T17:08:55Z</time></trkpt><trkpt lat="43.00357858229501" lon="12.668720731196183"><ele>405.0</ele><time>2026-05-03T17:08:56Z</time></trkpt><trkpt lat="43.00348270714784" lon="12.668712062391576"><ele>405.0</ele><time>2026-05-03T17:08:57Z</time></trkpt><trkpt lat="43.003389526841644" lon="12.668749702583458"><ele>405.0</ele><time>2026-05-03T17:08:58Z</time></trkpt><trkpt lat="43.00327664551797" lon="12.668751227546965"><ele>405.0</ele><time>2026-05-03T17:08:59Z</time></trkpt><trkpt lat="43.00316966557078" lon="12.668777351113556"><ele>402.2</ele><time>2026-05-03T17:09:00Z</time></trkpt><trkpt lat="43.00306129581081" lon="12.668812595819768"><ele>399.4</ele><time>2026-05-03T17:09:01Z</time></trkpt><trkpt lat="43.002953753750724" lon="12.668859974041258"><ele>396.6</ele><time>2026-05-03T17:09:02Z</time></trkpt><trkpt lat="43.00285019739956" lon="12.668913132926535"><ele>393.8</ele><time>2026-05-03T17:09:03Z</time></trkpt><trkpt lat="43.00275385850157" lon="12.66896915825213"><ele>391.0</ele><time>2026-05-03T17:09:04Z</time></trkpt><trkpt lat="43.002648339478384" lon="12.669034860424826"><ele>391.0</ele><time>2026-05-03T17:09:05Z</time></trkpt><trkpt lat="43.00255081269622" lon="12.669106169506103"><ele>391.0</ele><time>2026-05-03T17:09:06Z</time></trkpt><trkpt lat="43.002453591345876" lon="12.669176745038857"><ele>391.0</ele><time>2026-05-03T17:09:07Z</time></trkpt><trkpt lat="43.00235717329213" lon="12.669234435138634"><ele>391.0</ele><time>2026-05-03T17:09:08Z</time></trkpt><trkpt lat="43.00225523369851" lon="12.669295608365438"><ele>391.0</ele><time>2026-05-03T17:09:09Z</time></trkpt><trkpt lat="43.00215887974477" lon="12.669360409552326"><ele>389.20000000000005</ele><time>2026-05-03T17:09:10Z</time></trkpt><trkpt lat="43.002065358285414" lon="12.669433380494809"><ele>387.40000000000003</ele><time>2026-05-03T17:09:11Z</time></trkpt><trkpt lat="43.00196559220104" lon="12.669520655219703"><ele>385.6</ele><time>2026-05-03T17:09:12Z</time></trkpt><trkpt lat="43.001874819884776" lon="12.669600105091522"><ele>383.8</ele><time>2026-05-03T17:09:13Z</time></trkpt><trkpt lat="43.0017817764568" lon="12.669667595373445"><ele>382.0</ele><time>2026-05-03T17:09:14Z</time></trkpt><trkpt lat="43.00168943571315" lon="12.66972639855352"><ele>378.66666666666663</ele><time>2026-05-03T17:09:15Z</time></trkpt><trkpt lat="43.00159856333747" lon="12.669787450851935"><ele>375.3333333333333</ele><time>2026-05-03T17:09:16Z</time></trkpt><trkpt lat="43.00152463677552" lon="12.669844193816834"><ele>372.0</ele><time>2026-05-03T17:09:17Z</time></trkpt><trkpt lat="43.00146709034856" lon="12.669906211508215"><ele>368.6666666666667</ele><time>2026-05-03T17:09:18Z</time></trkpt><trkpt lat="43.001408068978996" lon="12.669937792559626"><ele>365.33333333333337</ele><time>2026-05-03T17:09:19Z</time></trkpt><trkpt lat="43.00132526521808" lon="12.669935986994805"><ele>362.0</ele><time>2026-05-03T17:09:20Z</time></trkpt><trkpt lat="43.00123356778214" lon="12.669883187468143"><ele>362.0</ele><time>2026-05-03T17:09:21Z</time></trkpt><trkpt lat="43.001136179703124" lon="12.669903124176132"><ele>362.0</ele><time>2026-05-03T17:09:22Z</time></trkpt><trkpt lat="43.00103651624961" lon="12.669944998895716"><ele>362.0</ele><time>2026-05-03T17:09:23Z</time></trkpt><trkpt lat="43.000940821691714" lon="12.669982514318061"><ele>362.0</ele><time>2026-05-03T17:09:24Z</time></trkpt><trkpt lat="43.000851874669124" lon="12.670009828104357"><ele>362.0</ele><time>2026-05-03T17:09:25Z</time></trkpt><trkpt lat="43.0007630717372" lon="12.670035904722335"><ele>358.20000000000005</ele><time>2026-05-03T17:09:26Z</time></trkpt><trkpt lat="43.00066980722194" lon="12.670067380657153"><ele>354.4</ele><time>2026-05-03T17:09:27Z</time></trkpt><trkpt lat="43.000561560827684" lon="12.670098287396788"><ele>350.6</ele><time>2026-05-03T17:09:28Z</time></trkpt><trkpt lat="43.000444902029585" lon="12.67012701766518"><ele>346.79999999999995</ele><time>2026-05-03T17:09:29Z</time></trkpt><trkpt lat="43.00032687699153" lon="12.670164727481755"><ele>343.0</ele><time>2026-05-03T17:09:30Z</time></trkpt><trkpt lat="43.00021897698521" lon="12.670216760035073"><ele>343.0</ele><time>2026-05-03T17:09:31Z</time></trkpt><trkpt lat="43.000112552373245" lon="12.670256181379516"><ele>343.0</ele><time>2026-05-03T17:09:32Z</time></trkpt><trkpt lat="43.000023726976615" lon="12.670300983171968"><ele>343.0</ele><time>2026-05-03T17:09:33Z</time></trkpt><trkpt lat="42.9999237017976" lon="12.670340401467817"><ele>343.0</ele><time>2026-05-03T17:09:34Z</time></trkpt><trkpt lat="42.9998191031471" lon="12.670382280506812"><ele>343.0</ele><time>2026-05-03T17:09:35Z</time></trkpt><trkpt lat="42.99970923300136" lon="12.670440202805002"><ele>346.0</ele><time>2026-05-03T17:09:36Z</time></trkpt><trkpt lat="42.9995936881918" lon="12.670493354867538"><ele>349.0</ele><time>2026-05-03T17:09:37Z</time></trkpt><trkpt lat="42.999464963878715" lon="12.670557447319476"><ele>352.0</ele><time>2026-05-03T17:09:38Z</time></trkpt><trkpt lat="42.99933570298297" lon="12.670629306318117"><ele>355.0</ele><time>2026-05-03T17:09:39Z</time></trkpt><trkpt lat="42.99920610700496" lon="12.670663458757593"><ele>348.5</ele><time>2026-05-03T17:09:40Z</time></trkpt><trkpt lat="42.99908693408139" lon="12.670714727279217"><ele>342.0</ele><time>2026-05-03T17:09:41Z</time></trkpt><trkpt lat="42.99898962629952" lon="12.670765561545071"><ele>335.5</ele><time>2026-05-03T17:09:42Z</time></trkpt><trkpt lat="42.99889230328159" lon="12.67084644329003"><ele>329.0</ele><time>2026-05-03T17:09:43Z</time></trkpt><trkpt lat="42.99881461630318" lon="12.670968166870429"><ele>329.0</ele><time>2026-05-03T17:09:44Z</time></trkpt><trkpt lat="42.998712037158654" lon="12.671040851199013"><ele>329.0</ele><time>2026-05-03T17:09:45Z</time></trkpt><trkpt lat="42.99861840509432" lon="12.671107761297046"><ele>329.0</ele><time>2026-05-03T17:09:46Z</time></trkpt><trkpt lat="42.99850059639345" lon="12.67107593179879"><ele>329.0</ele><time>2026-05-03T17:09:47Z</time></trkpt><trkpt lat="42.99838085457701" lon="12.671129233736377"><ele>326.83333333333337</ele><time>2026-05-03T17:09:48Z</time></trkpt><trkpt lat="42.99828770895251" lon="12.671182099272606"><ele>324.6666666666667</ele><time>2026-05-03T17:09:49Z</time></trkpt><trkpt lat="42.99820016957397" lon="12.671231957904649"><ele>322.5</ele><time>2026-05-03T17:09:50Z</time></trkpt><trkpt lat="42.99812368459566" lon="12.67127552048998"><ele>320.3333333333333</ele><time>2026-05-03T17:09:51Z</time></trkpt><trkpt lat="42.99806104050103" lon="12.671311137646214"><ele>318.16666666666663</ele><time>2026-05-03T17:09:52Z</time></trkpt><trkpt lat="42.99797660043192" lon="12.671355086966534"><ele>316.0</ele><time>2026-05-03T17:09:54Z</time></trkpt><trkpt lat="42.997902908207024" lon="12.671379110598345"><ele>316.0</ele><time>2026-05-03T17:09:57Z</time></trkpt><trkpt lat="42.997778633729986" lon="12.671409650132178"><ele>316.0</ele><time>2026-05-03T17:09:59Z</time></trkpt><trkpt lat="42.997700178140434" lon="12.671493587634044"><ele>316.0</ele><time>2026-05-03T17:10:00Z</time></trkpt><trkpt lat="42.99762478304373" lon="12.671529507975526"><ele>316.0</ele><time>2026-05-03T17:10:00.999Z</time></trkpt><trkpt lat="42.99754599976285" lon="12.671567042462376"><ele>316.0</ele><time>2026-05-03T17:10:01.999Z</time></trkpt><trkpt lat="42.99748300422966" lon="12.671596919838368"><ele>315.0</ele><time>2026-05-03T17:10:02.999Z</time></trkpt><trkpt lat="42.99741883218833" lon="12.671629155739755"><ele>314.0</ele><time>2026-05-03T17:10:04.999Z</time></trkpt><trkpt lat="42.99749466334714" lon="12.671932080303252"><ele>313.0</ele><time>2026-05-03T17:10:06.999Z</time></trkpt><trkpt lat="42.9975812018525" lon="12.672004157265622"><ele>312.0</ele><time>2026-05-03T17:10:07.999Z</time></trkpt><trkpt lat="42.997653821992536" lon="12.672115580079554"><ele>312.0</ele><time>2026-05-03T17:10:08.999Z</time></trkpt><trkpt lat="42.99773364895434" lon="12.672206942832096"><ele>312.0</ele><time>2026-05-03T17:10:09.999Z</time></trkpt><trkpt lat="42.997840640783885" lon="12.672309316251111"><ele>312.0</ele><time>2026-05-03T17:10:10.999Z</time></trkpt><trkpt lat="42.99795679562877" lon="12.67237317753402"><ele>312.0</ele><time>2026-05-03T17:10:11.999Z</time></trkpt><trkpt lat="42.998095257611666" lon="12.672425976533306"><ele>312.0</ele><time>2026-05-03T17:10:12.999Z</time></trkpt><trkpt lat="42.9981975367952" lon="12.672474778900103"><ele>312.0</ele><time>2026-05-03T17:10:13.999Z</time></trkpt><trkpt lat="42.9982616690941" lon="12.672547746570784"><ele>312.0</ele><time>2026-05-03T17:10:14.999Z</time></trkpt><trkpt lat="42.99834649958869" lon="12.672684580142572"><ele>312.0</ele><time>2026-05-03T17:10:16.999Z</time></trkpt><trkpt lat="42.99840237939295" lon="12.672764646750815"><ele>312.0</ele><time>2026-05-03T17:10:17.999Z</time></trkpt><trkpt lat="42.99845099325718" lon="12.672832739236878"><ele>324.0</ele><time>2026-05-03T17:10:18.999Z</time></trkpt><trkpt lat="42.99850015574876" lon="12.672901598446586"><ele>324.0</ele><time>2026-05-03T17:10:20.999Z</time></trkpt><trkpt lat="42.99855255528061" lon="12.672826426368394"><ele>324.0</ele><time>2026-05-03T17:10:32.999Z</time></trkpt><trkpt lat="42.99859660712431" lon="12.672889485903974"><ele>324.0</ele><time>2026-05-03T17:11:12Z</time></trkpt><trkpt lat="42.99853271771715" lon="12.672824930183975"><ele>324.0</ele><time>2026-05-03T17:11:39Z</time></trkpt></trkseg></trk></gpx>